Time,TemperatureF,DewpointF,PressureIn,WindDirection,WindDirectionDegrees,WindSpeedMPH,WindSpeedGustMPH,Humidity,HourlyPrecipIn,Conditions,Clouds,dailyrainin,SoftwareType,DateUTC
2013-05-23 00:00:00,77.5,71.2,29.99,SSE,158,0.0,0.0,81,0.00,,---,0.00,VWS V13.01,2013-05-23 04:00:00,
2013-05-23 00:01:00,77.5,71.6,29.99,SE,135,2.2,2.2,82,0.00,,---,0.00,VWS V13.01,2013-05-23 04:01:00,
2013-05-23 00:06:00,77.5,71.6,29.99,SSE,158,2.0,2.0,82,0.00,,---,0.00,VWS V13.01,2013-05-23 04:06:00,
2013-05-23 00:11:00,77.3,71.4,29.99,SE,135,0.0,0.0,82,0.00,,---,0.00,VWS V13.01,2013-05-23 04:11:00,
2013-05-23 00:16:00,77.1,71.5,29.99,SSW,202,0.0,0.0,83,0.00,,---,0.00,VWS V13.01,2013-05-23 04:16:00,
2013-05-23 00:21:00,77.1,71.5,29.99,SSE,158,0.0,0.6,83,0.00,,---,0.00,VWS V13.01,2013-05-23 04:21:00,
2013-05-23 00:26:00,77.0,71.4,29.99,SSE,158,0.0,0.0,83,0.00,,---,0.00,VWS V13.01,2013-05-23 04:26:00,
2013-05-23 00:27:00,77.0,71.4,29.99,SSE,158,0.0,0.0,83,0.00,,---,0.00,VWS V13.01,2013-05-23 04:27:00,
2013-05-23 00:31:00,76.8,71.2,29.99,SE,135,0.0,0.0,83,0.00,,---,0.00,VWS V13.01,2013-05-23 04:31:00,
2013-05-23 00:32:00,76.8,71.2,29.99,SE,135,2.0,2.0,83,0.00,,---,0.00,VWS V13.01,2013-05-23 04:32:00,
2013-05-23 00:36:00,76.8,71.2,29.99,SSE,158,3.3,3.3,83,0.00,,---,0.00,VWS V13.01,2013-05-23 04:36:00,
2013-05-23 00:37:00,76.8,71.2,29.99,ESE,112,9.6,9.6,83,0.00,,---,0.00,VWS V13.01,2013-05-23 04:37:00,
2013-05-23 00:41:00,76.8,71.2,29.99,SE,135,0.0,0.0,83,0.00,,---,0.00,VWS V13.01,2013-05-23 04:41:00,
2013-05-23 00:42:00,76.8,71.2,29.99,SE,135,2.9,2.9,83,0.00,,---,0.00,VWS V13.01,2013-05-23 04:42:00,
2013-05-23 00:46:00,76.8,71.2,29.99,South,180,3.8,3.8,83,0.00,,---,0.00,VWS V13.01,2013-05-23 04:46:00,
2013-05-23 00:47:00,76.8,71.2,29.99,SE,135,0.0,0.0,83,0.00,,---,0.00,VWS V13.01,2013-05-23 04:47:00,
2013-05-23 00:51:00,76.8,71.2,29.99,SE,135,0.0,0.0,83,0.00,,---,0.00,VWS V13.01,2013-05-23 04:51:00,
2013-05-23 00:52:00,76.8,71.2,29.99,SE,135,0.0,0.0,83,0.00,,---,0.00,VWS V13.01,2013-05-23 04:52:00,
2013-05-23 00:56:00,76.8,71.2,29.98,SE,135,0.0,0.0,83,0.00,,---,0.00,VWS V13.01,2013-05-23 04:56:00,
2013-05-23 00:57:00,76.8,71.2,29.98,SE,135,0.0,0.0,83,0.00,,---,0.00,VWS V13.01,2013-05-23 04:57:00,
2013-05-23 01:01:00,76.8,71.2,29.99,SE,135,3.8,3.8,83,0.00,,---,0.00,VWS V13.01,2013-05-23 05:01:00,
2013-05-23 01:02:00,76.8,71.2,29.99,SE,135,3.8,3.8,83,0.00,,---,0.00,VWS V13.01,2013-05-23 05:02:00,
2013-05-23 01:03:00,76.8,71.2,29.98,SE,135,0.0,0.0,83,0.00,,---,0.00,VWS V13.01,2013-05-23 05:03:00,
2013-05-23 01:06:00,76.8,71.2,29.99,SE,135,0.0,0.0,83,0.00,,---,0.00,VWS V13.01,2013-05-23 05:06:00,
2013-05-23 01:07:00,76.8,71.2,29.99,SSE,158,1.1,1.1,83,0.00,,---,0.00,VWS V13.01,2013-05-23 05:07:00,
2013-05-23 01:08:00,76.8,71.2,29.99,SSE,158,1.1,1.1,83,0.00,,---,0.00,VWS V13.01,2013-05-23 05:08:00,
2013-05-23 01:11:00,76.8,71.2,29.98,SE,135,4.4,4.4,83,0.00,,---,0.00,VWS V13.01,2013-05-23 05:11:00,
2013-05-23 01:12:00,76.8,71.2,29.99,South,180,0.0,0.0,83,0.00,,---,0.00,VWS V13.01,2013-05-23 05:12:00,
2013-05-23 01:13:00,76.8,71.2,29.99,South,180,0.0,0.0,83,0.00,,---,0.00,VWS V13.01,2013-05-23 05:13:00,
2013-05-23 01:16:00,76.8,71.2,29.98,SSE,158,2.0,2.0,83,0.00,,---,0.00,VWS V13.01,2013-05-23 05:16:00,
2013-05-23 01:17:00,76.8,71.2,29.99,ESE,112,0.0,0.0,83,0.00,,---,0.00,VWS V13.01,2013-05-23 05:17:00,
2013-05-23 01:18:00,76.8,71.2,29.99,ESE,112,0.0,0.0,83,0.00,,---,0.00,VWS V13.01,2013-05-23 05:18:00,
2013-05-23 01:21:00,76.8,71.2,29.98,SE,135,1.5,1.5,83,0.00,,---,0.00,VWS V13.01,2013-05-23 05:21:00,
2013-05-23 01:22:00,76.8,71.2,29.98,SE,135,1.5,1.5,83,0.00,,---,0.00,VWS V13.01,2013-05-23 05:22:00,
2013-05-23 01:23:00,76.8,71.2,29.98,SSE,158,0.0,0.0,83,0.00,,---,0.00,VWS V13.01,2013-05-23 05:23:00,
2013-05-23 01:27:00,77.0,71.4,29.98,SE,135,0.0,0.0,83,0.00,,---,0.00,VWS V13.01,2013-05-23 05:27:00,
2013-05-23 01:28:00,77.0,71.4,29.98,SE,135,0.0,0.0,83,0.00,,---,0.00,VWS V13.01,2013-05-23 05:28:00,
2013-05-23 01:32:00,77.0,71.4,29.98,SE,135,2.4,2.4,83,0.00,,---,0.00,VWS V13.01,2013-05-23 05:32:00,
2013-05-23 01:33:00,77.1,71.5,29.98,ENE,68,2.2,2.2,83,0.00,,---,0.00,VWS V13.01,2013-05-23 05:33:00,
2013-05-23 01:37:00,77.1,71.5,29.98,South,180,2.9,2.9,83,0.00,,---,0.00,VWS V13.01,2013-05-23 05:37:00,
2013-05-23 01:38:00,77.1,71.5,29.98,ESE,112,0.0,0.0,83,0.00,,---,0.00,VWS V13.01,2013-05-23 05:38:00,
2013-05-23 01:42:00,77.3,71.4,29.98,ENE,68,5.1,5.1,82,0.00,,---,0.00,VWS V13.01,2013-05-23 05:42:00,
2013-05-23 01:43:00,77.3,71.4,29.98,ENE,68,5.1,5.1,82,0.00,,---,0.00,VWS V13.01,2013-05-23 05:43:00,
2013-05-23 01:47:00,77.5,71.6,29.98,South,180,0.0,0.0,82,0.00,,---,0.00,VWS V13.01,2013-05-23 05:47:00,
2013-05-23 01:48:00,77.5,71.6,29.98,South,180,0.0,0.0,82,0.00,,---,0.00,VWS V13.01,2013-05-23 05:48:00,
2013-05-23 01:56:00,77.7,71.4,29.97,SSE,158,0.0,0.0,81,0.00,,---,0.00,VWS V13.01,2013-05-23 05:56:00,
2013-05-23 01:57:00,77.7,71.4,29.97,SSE,158,0.0,0.0,81,0.00,,---,0.00,VWS V13.01,2013-05-23 05:57:00,
2013-05-23 02:01:00,77.7,71.4,29.97,SE,135,0.0,0.0,81,0.00,,---,0.00,VWS V13.01,2013-05-23 06:01:00,
2013-05-23 02:02:00,77.7,71.4,29.97,SE,135,0.0,0.0,81,0.00,,---,0.00,VWS V13.01,2013-05-23 06:02:00,
2013-05-23 02:06:00,77.7,71.4,29.97,SSE,158,2.2,2.2,81,0.00,,---,0.00,VWS V13.01,2013-05-23 06:06:00,
2013-05-23 02:07:00,77.7,71.4,29.97,SSE,158,2.2,2.2,81,0.00,,---,0.00,VWS V13.01,2013-05-23 06:07:00,
2013-05-23 02:11:00,77.7,71.4,29.97,SSE,158,0.6,0.6,81,0.00,,---,0.00,VWS V13.01,2013-05-23 06:11:00,
2013-05-23 02:12:00,77.7,71.4,29.97,SSE,158,0.6,0.6,81,0.00,,---,0.00,VWS V13.01,2013-05-23 06:12:00,
2013-05-23 02:16:00,77.7,71.0,29.97,ENE,68,0.0,0.0,80,0.00,,---,0.00,VWS V13.01,2013-05-23 06:16:00,
2013-05-23 02:17:00,77.7,71.0,29.97,ENE,68,0.0,0.0,80,0.00,,---,0.00,VWS V13.01,2013-05-23 06:17:00,
2013-05-23 02:22:00,77.7,71.0,29.97,East,90,3.5,3.5,80,0.00,,---,0.00,VWS V13.01,2013-05-23 06:22:00,
2013-05-23 02:27:00,77.7,71.0,29.97,ENE,68,0.0,0.0,80,0.00,,---,0.00,VWS V13.01,2013-05-23 06:27:00,
2013-05-23 02:32:00,77.5,70.8,29.97,SE,135,3.5,3.5,80,0.00,,---,0.00,VWS V13.01,2013-05-23 06:32:00,
2013-05-23 02:37:00,77.5,70.8,29.97,ENE,68,0.0,0.0,80,0.00,,---,0.00,VWS V13.01,2013-05-23 06:37:00,
2013-05-23 02:38:00,77.5,70.8,29.97,SE,135,7.6,7.6,80,0.00,,---,0.00,VWS V13.01,2013-05-23 06:38:00,
2013-05-23 02:42:00,77.5,70.8,29.97,SSE,158,0.0,0.0,80,0.00,,---,0.00,VWS V13.01,2013-05-23 06:42:00,
2013-05-23 02:43:00,77.5,70.8,29.97,ESE,112,0.0,0.0,80,0.00,,---,0.00,VWS V13.01,2013-05-23 06:43:00,
2013-05-23 02:47:00,77.3,70.7,29.97,SE,135,0.0,0.0,80,0.00,,---,0.00,VWS V13.01,2013-05-23 06:47:00,
2013-05-23 02:48:00,77.3,70.7,29.97,ESE,112,0.0,0.0,80,0.00,,---,0.00,VWS V13.01,2013-05-23 06:48:00,
2013-05-23 02:52:00,77.1,70.5,29.97,SE,135,1.3,1.3,80,0.00,,---,0.00,VWS V13.01,2013-05-23 06:52:00,
2013-05-23 02:53:00,77.1,70.5,29.97,SE,135,0.0,0.0,80,0.00,,---,0.00,VWS V13.01,2013-05-23 06:53:00,
2013-05-23 02:57:00,77.1,70.5,29.97,ESE,112,2.4,2.4,80,0.00,,---,0.00,VWS V13.01,2013-05-23 06:57:00,
2013-05-23 02:58:00,77.1,70.5,29.97,ESE,112,3.8,3.8,80,0.00,,---,0.00,VWS V13.01,2013-05-23 06:58:00,
2013-05-23 03:02:00,77.1,70.5,29.97,East,90,0.0,0.0,80,0.00,,---,0.00,VWS V13.01,2013-05-23 07:02:00,
2013-05-23 03:03:00,77.1,70.5,29.98,SE,135,0.0,0.0,80,0.00,,---,0.00,VWS V13.01,2013-05-23 07:03:00,
2013-05-23 03:07:00,77.1,70.5,29.97,SE,135,0.0,0.0,80,0.00,,---,0.00,VWS V13.01,2013-05-23 07:07:00,
2013-05-23 03:08:00,77.1,70.5,29.97,ESE,112,2.0,2.0,80,0.00,,---,0.00,VWS V13.01,2013-05-23 07:08:00,
2013-05-23 03:12:00,77.0,70.4,29.97,East,90,0.0,0.0,80,0.00,,---,0.00,VWS V13.01,2013-05-23 07:12:00,
2013-05-23 03:14:00,77.0,70.4,29.97,SE,135,0.0,0.0,80,0.00,,---,0.00,VWS V13.01,2013-05-23 07:14:00,
2013-05-23 03:17:00,76.8,70.2,29.97,ESE,112,3.3,3.3,80,0.00,,---,0.00,VWS V13.01,2013-05-23 07:17:00,
2013-05-23 03:18:00,76.8,70.2,29.97,ESE,112,3.3,3.3,80,0.00,,---,0.00,VWS V13.01,2013-05-23 07:18:00,
2013-05-23 03:19:00,76.8,70.2,29.97,SE,135,0.0,0.0,80,0.00,,---,0.00,VWS V13.01,2013-05-23 07:19:00,
2013-05-23 03:22:00,76.8,70.2,29.97,ESE,112,0.0,1.3,80,0.00,,---,0.00,VWS V13.01,2013-05-23 07:22:00,
2013-05-23 03:23:00,76.8,70.2,29.97,ESE,112,0.0,0.0,80,0.00,,---,0.00,VWS V13.01,2013-05-23 07:23:00,
2013-05-23 03:24:00,76.8,70.2,29.97,SSE,158,1.5,1.5,80,0.00,,---,0.00,VWS V13.01,2013-05-23 07:24:00,
2013-05-23 03:27:00,76.8,69.8,29.96,SE,135,0.0,0.0,79,0.00,,---,0.00,VWS V13.01,2013-05-23 07:27:00,
2013-05-23 03:28:00,76.8,69.8,29.96,SE,135,0.0,0.0,79,0.00,,---,0.00,VWS V13.01,2013-05-23 07:28:00,
2013-05-23 03:29:00,76.8,69.8,29.97,SE,135,1.3,1.3,79,0.00,,---,0.00,VWS V13.01,2013-05-23 07:29:00,
2013-05-23 03:32:00,76.8,69.8,29.96,SE,135,1.3,1.3,79,0.00,,---,0.00,VWS V13.01,2013-05-23 07:32:00,
2013-05-23 03:33:00,76.8,69.8,29.96,SE,135,1.3,1.3,79,0.00,,---,0.00,VWS V13.01,2013-05-23 07:33:00,
2013-05-23 03:34:00,76.8,69.8,29.96,SE,135,2.4,2.4,79,0.00,,---,0.00,VWS V13.01,2013-05-23 07:34:00,
2013-05-23 03:37:00,76.8,69.8,29.96,SE,135,0.0,0.0,79,0.00,,---,0.00,VWS V13.01,2013-05-23 07:37:00,
2013-05-23 03:38:00,76.8,69.8,29.96,SE,135,0.0,0.0,79,0.00,,---,0.00,VWS V13.01,2013-05-23 07:38:00,
2013-05-23 03:39:00,76.8,69.8,29.96,SE,135,0.0,0.0,79,0.00,,---,0.00,VWS V13.01,2013-05-23 07:39:00,
2013-05-23 03:42:00,76.8,69.8,29.96,SE,135,0.0,0.0,79,0.00,,---,0.00,VWS V13.01,2013-05-23 07:42:00,
2013-05-23 03:43:00,76.8,69.8,29.96,SE,135,0.0,0.0,79,0.00,,---,0.00,VWS V13.01,2013-05-23 07:43:00,
2013-05-23 03:44:00,76.8,69.8,29.96,SE,135,1.5,1.5,79,0.00,,---,0.00,VWS V13.01,2013-05-23 07:44:00,
2013-05-23 03:47:00,76.8,69.8,29.96,SE,135,2.4,2.4,79,0.00,,---,0.00,VWS V13.01,2013-05-23 07:47:00,
2013-05-23 03:48:00,76.8,69.8,29.96,SE,135,2.4,2.4,79,0.00,,---,0.00,VWS V13.01,2013-05-23 07:48:00,
2013-05-23 03:49:00,76.8,69.8,29.96,SE,135,2.2,2.2,79,0.00,,---,0.00,VWS V13.01,2013-05-23 07:49:00,
2013-05-23 03:53:00,76.8,69.8,29.96,SE,135,0.0,0.0,79,0.00,,---,0.00,VWS V13.01,2013-05-23 07:53:00,
2013-05-23 03:54:00,76.8,69.8,29.96,SE,135,0.0,0.0,79,0.00,,---,0.00,VWS V13.01,2013-05-23 07:54:00,
2013-05-23 03:55:00,76.8,69.8,29.96,SE,135,0.0,0.0,79,0.00,,---,0.00,VWS V13.01,2013-05-23 07:55:00,
2013-05-23 03:57:00,76.8,69.8,29.96,SE,135,1.1,1.1,79,0.00,,---,0.00,VWS V13.01,2013-05-23 07:57:00,
2013-05-23 03:58:00,76.8,69.8,29.96,SE,135,1.1,1.1,79,0.00,,---,0.00,VWS V13.01,2013-05-23 07:58:00,
2013-05-23 03:59:00,76.8,69.8,29.96,SE,135,1.1,1.1,79,0.00,,---,0.00,VWS V13.01,2013-05-23 07:59:00,
2013-05-23 04:00:00,76.8,69.8,29.96,SSE,158,0.0,0.0,79,0.00,,---,0.00,VWS V13.01,2013-05-23 08:00:00,
2013-05-23 04:02:00,76.8,69.8,29.96,SE,135,0.6,0.6,79,0.00,,---,0.00,VWS V13.01,2013-05-23 08:02:00,
2013-05-23 04:04:00,76.8,69.8,29.96,SE,135,0.0,0.0,79,0.00,,---,0.00,VWS V13.01,2013-05-23 08:04:00,
2013-05-23 04:05:00,76.8,69.8,29.96,SSE,158,0.0,0.0,79,0.00,,---,0.00,VWS V13.01,2013-05-23 08:05:00,
2013-05-23 04:07:00,76.8,69.8,29.96,SSW,202,0.0,0.0,79,0.00,,---,0.00,VWS V13.01,2013-05-23 08:07:00,
2013-05-23 04:09:00,76.8,69.8,29.96,SSE,158,0.0,0.0,79,0.00,,---,0.00,VWS V13.01,2013-05-23 08:09:00,
2013-05-23 04:10:00,76.8,69.8,29.96,SE,135,2.0,2.0,79,0.00,,---,0.00,VWS V13.01,2013-05-23 08:10:00,
2013-05-23 04:12:00,76.8,69.8,29.96,SSE,158,0.0,0.0,79,0.00,,---,0.00,VWS V13.01,2013-05-23 08:12:00,
2013-05-23 04:14:00,76.8,69.8,29.96,SE,135,0.0,0.0,79,0.00,,---,0.00,VWS V13.01,2013-05-23 08:14:00,
2013-05-23 04:15:00,76.8,69.8,29.96,SE,135,0.0,0.0,79,0.00,,---,0.00,VWS V13.01,2013-05-23 08:15:00,
2013-05-23 04:17:00,76.8,69.8,29.96,ESE,112,0.0,0.0,79,0.00,,---,0.00,VWS V13.01,2013-05-23 08:17:00,
2013-05-23 04:19:00,76.8,69.8,29.96,ESE,112,0.0,0.0,79,0.00,,---,0.00,VWS V13.01,2013-05-23 08:19:00,
2013-05-23 04:20:00,76.8,69.8,29.96,SE,135,0.0,0.0,79,0.00,,---,0.00,VWS V13.01,2013-05-23 08:20:00,
2013-05-23 04:22:00,76.8,69.8,29.96,SE,135,0.0,0.0,79,0.00,,---,0.00,VWS V13.01,2013-05-23 08:22:00,
2013-05-23 04:24:00,76.6,70.0,29.96,SE,135,0.0,0.0,80,0.00,,---,0.00,VWS V13.01,2013-05-23 08:24:00,
2013-05-23 04:25:00,76.6,70.0,29.96,SE,135,0.0,0.0,80,0.00,,---,0.00,VWS V13.01,2013-05-23 08:25:00,
2013-05-23 04:26:00,76.6,70.0,29.96,SE,135,0.0,0.0,80,0.00,,---,0.00,VWS V13.01,2013-05-23 08:26:00,
2013-05-23 04:27:00,76.6,70.0,29.96,SE,135,3.5,3.5,80,0.00,,---,0.00,VWS V13.01,2013-05-23 08:27:00,
2013-05-23 04:29:00,76.6,70.0,29.96,SE,135,0.0,0.0,80,0.00,,---,0.00,VWS V13.01,2013-05-23 08:29:00,
2013-05-23 04:31:00,76.6,70.0,29.96,ESE,112,0.0,0.0,80,0.00,,---,0.00,VWS V13.01,2013-05-23 08:31:00,
2013-05-23 04:32:00,76.6,70.0,29.96,SE,135,0.0,0.0,80,0.00,,---,0.00,VWS V13.01,2013-05-23 08:32:00,
2013-05-23 04:34:00,76.6,70.0,29.96,SE,135,0.0,0.0,80,0.00,,---,0.00,VWS V13.01,2013-05-23 08:34:00,
2013-05-23 04:36:00,76.6,70.0,29.96,SSE,158,0.0,0.0,80,0.00,,---,0.00,VWS V13.01,2013-05-23 08:36:00,
2013-05-23 04:37:00,76.6,70.0,29.96,SE,135,0.0,0.0,80,0.00,,---,0.00,VWS V13.01,2013-05-23 08:37:00,
2013-05-23 04:39:00,76.6,70.0,29.96,SE,135,0.0,0.0,80,0.00,,---,0.00,VWS V13.01,2013-05-23 08:39:00,
2013-05-23 04:41:00,76.6,70.0,29.96,South,180,0.0,0.0,80,0.00,,---,0.00,VWS V13.01,2013-05-23 08:41:00,
2013-05-23 04:42:00,76.6,70.0,29.96,SSE,158,0.0,0.0,80,0.00,,---,0.00,VWS V13.01,2013-05-23 08:42:00,
2013-05-23 04:44:00,76.6,70.0,29.96,SE,135,0.0,0.0,80,0.00,,---,0.00,VWS V13.01,2013-05-23 08:44:00,
2013-05-23 04:46:00,76.6,70.0,29.96,South,180,0.0,0.0,80,0.00,,---,0.00,VWS V13.01,2013-05-23 08:46:00,
2013-05-23 04:47:00,76.6,70.0,29.96,SE,135,0.0,0.0,80,0.00,,---,0.00,VWS V13.01,2013-05-23 08:47:00,
2013-05-23 04:49:00,76.6,70.0,29.97,South,180,0.0,0.0,80,0.00,,---,0.00,VWS V13.01,2013-05-23 08:49:00,
2013-05-23 04:51:00,76.6,70.0,29.97,South,180,0.0,0.0,80,0.00,,---,0.00,VWS V13.01,2013-05-23 08:51:00,
2013-05-23 04:52:00,76.6,70.0,29.97,SSE,158,0.0,0.0,80,0.00,,---,0.00,VWS V13.01,2013-05-23 08:52:00,
2013-05-23 04:54:00,76.6,70.0,29.96,SSE,158,0.0,0.0,80,0.00,,---,0.00,VWS V13.01,2013-05-23 08:54:00,
2013-05-23 04:56:00,76.6,70.0,29.96,SE,135,0.0,0.0,80,0.00,,---,0.00,VWS V13.01,2013-05-23 08:56:00,
2013-05-23 04:57:00,76.6,70.0,29.96,South,180,0.0,0.0,80,0.00,,---,0.00,VWS V13.01,2013-05-23 08:57:00,
2013-05-23 04:59:00,76.6,70.0,29.96,SE,135,0.0,0.0,80,0.00,,---,0.00,VWS V13.01,2013-05-23 08:59:00,
2013-05-23 05:01:00,76.6,70.0,29.96,ESE,112,2.2,2.2,80,0.00,,---,0.00,VWS V13.01,2013-05-23 09:01:00,
2013-05-23 05:02:00,76.6,70.0,29.96,SE,135,1.3,1.3,80,0.00,,---,0.00,VWS V13.01,2013-05-23 09:02:00,
2013-05-23 05:04:00,76.4,69.8,29.97,SE,135,0.0,0.0,80,0.00,,---,0.00,VWS V13.01,2013-05-23 09:04:00,
2013-05-23 05:06:00,76.4,69.8,29.97,SE,135,0.0,0.0,80,0.00,,---,0.00,VWS V13.01,2013-05-23 09:06:00,
2013-05-23 05:07:00,76.4,70.1,29.97,SSE,158,0.0,0.0,81,0.00,,---,0.00,VWS V13.01,2013-05-23 09:07:00,
2013-05-23 05:09:00,76.4,70.1,29.96,SE,135,0.0,0.0,81,0.00,,---,0.00,VWS V13.01,2013-05-23 09:09:00,
2013-05-23 05:10:00,76.4,70.1,29.96,SE,135,0.0,0.0,81,0.00,,---,0.00,VWS V13.01,2013-05-23 09:10:00,
2013-05-23 05:11:00,76.2,69.9,29.96,SSE,158,0.0,0.0,81,0.00,,---,0.00,VWS V13.01,2013-05-23 09:11:00,
2013-05-23 05:13:00,76.2,69.9,29.97,SE,135,0.0,0.0,81,0.00,,---,0.00,VWS V13.01,2013-05-23 09:13:00,
2013-05-23 05:14:00,76.2,69.9,29.97,South,180,0.0,0.0,81,0.00,,---,0.00,VWS V13.01,2013-05-23 09:14:00,
2013-05-23 05:15:00,76.2,69.9,29.97,SE,135,0.0,0.0,81,0.00,,---,0.00,VWS V13.01,2013-05-23 09:15:00,
2013-05-23 05:16:00,76.2,69.9,29.97,SE,135,0.0,0.0,81,0.00,,---,0.00,VWS V13.01,2013-05-23 09:16:00,
2013-05-23 05:18:00,76.2,69.9,29.97,South,180,0.0,0.0,81,0.00,,---,0.00,VWS V13.01,2013-05-23 09:18:00,
2013-05-23 05:19:00,76.2,69.9,29.97,South,180,0.0,0.0,81,0.00,,---,0.00,VWS V13.01,2013-05-23 09:19:00,
2013-05-23 05:20:00,76.2,69.9,29.97,SE,135,0.0,0.0,81,0.00,,---,0.00,VWS V13.01,2013-05-23 09:20:00,
2013-05-23 05:21:00,76.2,69.9,29.97,SE,135,0.0,0.0,81,0.00,,---,0.00,VWS V13.01,2013-05-23 09:21:00,
2013-05-23 05:23:00,76.2,69.9,29.97,SE,135,0.0,0.0,81,0.00,,---,0.00,VWS V13.01,2013-05-23 09:23:00,
2013-05-23 05:24:00,76.2,69.9,29.97,South,180,0.0,0.0,81,0.00,,---,0.00,VWS V13.01,2013-05-23 09:24:00,
2013-05-23 05:25:00,76.2,69.9,29.97,SSE,158,0.0,0.0,81,0.00,,---,0.00,VWS V13.01,2013-05-23 09:25:00,
2013-05-23 05:26:00,76.2,69.9,29.97,SSE,158,0.0,0.0,81,0.00,,---,0.00,VWS V13.01,2013-05-23 09:26:00,
2013-05-23 05:28:00,76.2,69.9,29.97,SE,135,0.0,0.0,81,0.00,,---,0.00,VWS V13.01,2013-05-23 09:28:00,
2013-05-23 05:29:00,76.2,69.9,29.97,SSW,202,0.0,0.0,81,0.00,,---,0.00,VWS V13.01,2013-05-23 09:29:00,
2013-05-23 05:30:00,76.4,70.1,29.97,SSE,158,0.0,0.0,81,0.00,,---,0.00,VWS V13.01,2013-05-23 09:30:00,
2013-05-23 05:31:00,76.4,70.1,29.97,SSE,158,0.0,0.0,81,0.00,,---,0.00,VWS V13.01,2013-05-23 09:31:00,
2013-05-23 05:32:00,76.2,69.9,29.97,SE,135,0.0,0.0,81,0.00,,---,0.00,VWS V13.01,2013-05-23 09:32:00,
2013-05-23 05:33:00,76.2,69.9,29.97,SSE,158,0.0,0.0,81,0.00,,---,0.00,VWS V13.01,2013-05-23 09:33:00,
2013-05-23 05:34:00,76.2,69.9,29.97,SSE,158,0.0,0.0,81,0.00,,---,0.00,VWS V13.01,2013-05-23 09:34:00,
2013-05-23 05:35:00,76.2,69.9,29.97,SSE,158,0.0,0.0,81,0.00,,---,0.00,VWS V13.01,2013-05-23 09:35:00,
2013-05-23 05:36:00,76.2,69.9,29.97,SSE,158,0.0,0.0,81,0.00,,---,0.00,VWS V13.01,2013-05-23 09:36:00,
2013-05-23 05:37:00,76.4,70.1,29.97,SE,135,2.2,2.2,81,0.00,,---,0.00,VWS V13.01,2013-05-23 09:37:00,
2013-05-23 05:38:00,76.4,70.1,29.97,SE,135,2.2,2.2,81,0.00,,---,0.00,VWS V13.01,2013-05-23 09:38:00,
2013-05-23 05:39:00,76.2,70.3,29.98,ESE,112,0.0,0.0,82,0.00,,---,0.00,VWS V13.01,2013-05-23 09:39:00,
2013-05-23 05:40:00,76.2,70.3,29.98,South,180,0.6,0.6,82,0.00,,---,0.00,VWS V13.01,2013-05-23 09:40:00,
2013-05-23 05:41:00,76.2,70.3,29.98,South,180,0.6,0.6,82,0.00,,---,0.00,VWS V13.01,2013-05-23 09:41:00,
2013-05-23 05:42:00,76.4,70.5,29.98,South,180,1.3,1.3,82,0.00,,---,0.00,VWS V13.01,2013-05-23 09:42:00,
2013-05-23 05:43:00,76.4,70.5,29.98,South,180,1.3,1.3,82,0.00,,---,0.00,VWS V13.01,2013-05-23 09:43:00,
2013-05-23 05:44:00,76.4,70.5,29.98,SSE,158,0.0,0.0,82,0.00,,---,0.00,VWS V13.01,2013-05-23 09:44:00,
2013-05-23 05:45:00,76.4,70.5,29.98,South,180,2.0,2.0,82,0.00,,---,0.00,VWS V13.01,2013-05-23 09:45:00,
2013-05-23 05:46:00,76.4,70.5,29.98,SSE,158,0.0,0.0,82,0.00,,---,0.00,VWS V13.01,2013-05-23 09:46:00,
2013-05-23 05:47:00,76.4,70.5,29.98,SE,135,0.8,0.8,82,0.00,,---,0.00,VWS V13.01,2013-05-23 09:47:00,
2013-05-23 05:48:00,76.4,70.5,29.98,SE,135,0.0,0.0,82,0.00,,---,0.00,VWS V13.01,2013-05-23 09:48:00,
2013-05-23 05:49:00,76.4,70.5,29.98,SE,135,0.6,0.6,82,0.00,,---,0.00,VWS V13.01,2013-05-23 09:49:00,
2013-05-23 05:50:00,76.4,70.5,29.98,SE,135,4.4,4.4,82,0.00,,---,0.00,VWS V13.01,2013-05-23 09:50:00,
2013-05-23 05:51:00,76.6,70.7,29.98,SE,135,0.0,0.0,82,0.00,,---,0.00,VWS V13.01,2013-05-23 09:51:00,
2013-05-23 05:52:00,76.6,70.7,29.98,East,90,4.2,4.2,82,0.00,,---,0.00,VWS V13.01,2013-05-23 09:52:00,
2013-05-23 05:53:00,76.4,70.5,29.97,SE,135,4.0,4.0,82,0.00,,---,0.00,VWS V13.01,2013-05-23 09:53:00,
2013-05-23 05:54:00,76.4,70.5,29.98,SE,135,0.0,0.0,82,0.00,,---,0.00,VWS V13.01,2013-05-23 09:54:00,
2013-05-23 05:56:00,76.6,70.7,29.98,South,180,2.6,2.6,82,0.00,,---,0.00,VWS V13.01,2013-05-23 09:56:00,
2013-05-23 05:57:00,76.6,70.7,29.98,South,180,0.0,0.0,82,0.00,,---,0.00,VWS V13.01,2013-05-23 09:57:00,
2013-05-23 05:58:00,76.6,70.7,29.98,SSE,158,0.0,0.0,82,0.00,,---,0.00,VWS V13.01,2013-05-23 09:58:00,
2013-05-23 05:59:00,76.6,70.7,29.98,SSE,158,0.0,0.0,82,0.00,,---,0.00,VWS V13.01,2013-05-23 09:59:00,
2013-05-23 06:01:00,76.6,70.7,29.98,SE,135,0.0,0.0,82,0.00,,---,0.00,VWS V13.01,2013-05-23 10:01:00,
2013-05-23 06:02:00,76.6,70.7,29.97,South,180,0.0,0.0,82,0.00,,---,0.00,VWS V13.01,2013-05-23 10:02:00,
2013-05-23 06:03:00,76.6,70.7,29.97,SSE,158,0.0,0.0,82,0.00,,---,0.00,VWS V13.01,2013-05-23 10:03:00,
2013-05-23 06:04:00,76.6,70.7,29.98,SSE,158,0.0,0.0,82,0.00,,---,0.00,VWS V13.01,2013-05-23 10:04:00,
2013-05-23 06:06:00,76.6,70.7,29.98,SE,135,0.0,0.0,82,0.00,,---,0.00,VWS V13.01,2013-05-23 10:06:00,
2013-05-23 06:07:00,76.8,70.9,29.98,ESE,112,0.0,0.0,82,0.00,,---,0.00,VWS V13.01,2013-05-23 10:07:00,
2013-05-23 06:08:00,76.8,70.9,29.98,SSE,158,0.0,0.0,82,0.00,,---,0.00,VWS V13.01,2013-05-23 10:08:00,
2013-05-23 06:09:00,76.8,70.9,29.98,SE,135,2.0,2.0,82,0.00,,---,0.00,VWS V13.01,2013-05-23 10:09:00,
2013-05-23 06:11:00,76.8,70.9,29.98,SE,135,0.0,0.0,82,0.00,,---,0.00,VWS V13.01,2013-05-23 10:11:00,
2013-05-23 06:12:00,76.8,70.9,29.98,SE,135,2.0,2.0,82,0.00,,---,0.00,VWS V13.01,2013-05-23 10:12:00,
2013-05-23 06:13:00,76.8,70.9,29.98,SE,135,1.3,1.3,82,0.00,,---,0.00,VWS V13.01,2013-05-23 10:13:00,
2013-05-23 06:14:00,76.8,70.9,29.98,SE,135,0.0,0.0,82,0.00,,---,0.00,VWS V13.01,2013-05-23 10:14:00,
2013-05-23 06:16:00,76.8,70.9,29.98,SE,135,4.0,4.0,82,0.00,,---,0.00,VWS V13.01,2013-05-23 10:16:00,
2013-05-23 06:17:00,76.8,70.9,29.98,SE,135,0.0,0.0,82,0.00,,---,0.00,VWS V13.01,2013-05-23 10:17:00,
2013-05-23 06:19:00,76.8,70.9,29.98,SSE,158,3.1,3.1,82,0.00,,---,0.00,VWS V13.01,2013-05-23 10:19:00,
2013-05-23 06:20:00,76.8,70.9,29.98,SE,135,0.0,0.0,82,0.00,,---,0.00,VWS V13.01,2013-05-23 10:20:00,
2013-05-23 06:21:00,77.0,71.1,29.98,East,90,0.0,0.0,82,0.00,,---,0.00,VWS V13.01,2013-05-23 10:21:00,
2013-05-23 06:22:00,77.1,71.2,29.98,SSE,158,4.6,4.6,82,0.00,,---,0.00,VWS V13.01,2013-05-23 10:22:00,
2013-05-23 06:24:00,77.1,71.2,29.98,SE,135,0.0,0.0,82,0.00,,---,0.00,VWS V13.01,2013-05-23 10:24:00,
2013-05-23 06:25:00,77.1,71.2,29.98,SE,135,0.0,0.0,82,0.00,,---,0.00,VWS V13.01,2013-05-23 10:25:00,
2013-05-23 06:26:00,77.1,71.2,29.98,SE,135,3.3,3.3,82,0.00,,---,0.00,VWS V13.01,2013-05-23 10:26:00,
2013-05-23 06:27:00,77.1,71.2,29.98,SE,135,3.3,3.3,82,0.00,,---,0.00,VWS V13.01,2013-05-23 10:27:00,
2013-05-23 06:29:00,77.5,71.6,29.98,SSE,158,0.0,0.0,82,0.00,,---,0.00,VWS V13.01,2013-05-23 10:29:00,
2013-05-23 06:30:00,77.5,71.6,29.98,ESE,112,0.0,0.0,82,0.00,,---,0.00,VWS V13.01,2013-05-23 10:30:00,
2013-05-23 06:31:00,77.5,71.2,29.99,SSE,158,0.0,0.0,81,0.00,,---,0.00,VWS V13.01,2013-05-23 10:31:00,
2013-05-23 06:32:00,77.5,71.2,29.99,SSE,158,0.0,0.0,81,0.00,,---,0.00,VWS V13.01,2013-05-23 10:32:00,
2013-05-23 06:34:00,77.5,71.2,29.99,SSE,158,0.0,0.0,81,0.00,,---,0.00,VWS V13.01,2013-05-23 10:34:00,
2013-05-23 06:35:00,77.7,71.4,29.99,East,90,0.6,0.6,81,0.00,,---,0.00,VWS V13.01,2013-05-23 10:35:00,
2013-05-23 06:37:00,77.7,71.4,29.98,ESE,112,0.0,0.0,81,0.00,,---,0.00,VWS V13.01,2013-05-23 10:37:00,
2013-05-23 06:38:00,77.7,71.4,29.99,ESE,112,0.8,0.8,81,0.00,,---,0.00,VWS V13.01,2013-05-23 10:38:00,
2013-05-23 06:39:00,77.7,71.4,29.99,ESE,112,0.0,0.0,81,0.00,,---,0.00,VWS V13.01,2013-05-23 10:39:00,
2013-05-23 06:40:00,77.9,71.6,29.98,SE,135,1.5,1.5,81,0.00,,---,0.00,VWS V13.01,2013-05-23 10:40:00,
2013-05-23 06:42:00,77.9,71.6,29.98,ESE,112,0.0,0.0,81,0.00,,---,0.00,VWS V13.01,2013-05-23 10:42:00,
2013-05-23 06:43:00,77.9,71.6,29.99,SE,135,4.6,4.6,81,0.00,,---,0.00,VWS V13.01,2013-05-23 10:43:00,
2013-05-23 06:44:00,78.0,71.7,29.99,SSE,158,6.2,6.2,81,0.00,,---,0.00,VWS V13.01,2013-05-23 10:44:00,
2013-05-23 06:45:00,77.9,71.6,29.99,ESE,112,2.0,2.0,81,0.00,,---,0.00,VWS V13.01,2013-05-23 10:45:00,
2013-05-23 06:47:00,77.9,71.6,29.99,South,180,0.0,0.0,81,0.00,,---,0.00,VWS V13.01,2013-05-23 10:47:00,
2013-05-23 06:48:00,77.9,71.6,29.99,SSE,158,0.0,0.0,81,0.00,,---,0.00,VWS V13.01,2013-05-23 10:48:00,
2013-05-23 06:49:00,78.0,71.3,29.99,SE,135,0.0,0.0,80,0.00,,---,0.00,VWS V13.01,2013-05-23 10:49:00,
2013-05-23 06:50:00,78.0,71.3,29.99,North,0,0.0,0.0,80,0.00,,---,0.00,VWS V13.01,2013-05-23 10:50:00,
2013-05-23 06:52:00,78.0,71.3,29.99,ESE,112,3.8,3.8,80,0.00,,---,0.00,VWS V13.01,2013-05-23 10:52:00,
2013-05-23 06:53:00,78.0,71.3,29.99,SE,135,2.0,2.0,80,0.00,,---,0.00,VWS V13.01,2013-05-23 10:53:00,
2013-05-23 06:54:00,78.0,71.3,29.99,SE,135,1.3,1.3,80,0.00,,---,0.00,VWS V13.01,2013-05-23 10:54:00,
2013-05-23 06:55:00,78.0,71.3,29.99,SE,135,0.8,0.8,80,0.00,,---,0.00,VWS V13.01,2013-05-23 10:55:00,
2013-05-23 06:57:00,78.0,71.3,29.99,WNW,292,0.0,0.0,80,0.00,,---,0.00,VWS V13.01,2013-05-23 10:57:00,
2013-05-23 06:58:00,78.0,71.3,29.99,SE,135,3.8,3.8,80,0.00,,---,0.00,VWS V13.01,2013-05-23 10:58:00,
2013-05-23 06:59:00,78.0,71.3,30.00,SE,135,0.0,0.0,80,0.00,,---,0.00,VWS V13.01,2013-05-23 10:59:00,
2013-05-23 07:00:00,78.0,71.3,30.00,SE,135,0.0,0.0,80,0.00,,---,0.00,VWS V13.01,2013-05-23 11:00:00,
2013-05-23 07:02:00,78.0,71.3,30.00,East,90,0.0,0.0,80,0.00,,---,0.00,VWS V13.01,2013-05-23 11:02:00,
2013-05-23 07:03:00,78.0,71.3,30.00,SE,135,2.2,2.2,80,0.00,,---,0.00,VWS V13.01,2013-05-23 11:03:00,
2013-05-23 07:04:00,78.0,71.3,29.99,SE,135,0.0,0.0,80,0.00,,---,0.00,VWS V13.01,2013-05-23 11:04:00,
2013-05-23 07:05:00,78.0,71.3,30.00,ESE,112,0.0,0.0,80,0.00,,---,0.00,VWS V13.01,2013-05-23 11:05:00,
2013-05-23 07:07:00,78.0,71.3,30.00,SSE,158,0.0,0.0,80,0.00,,---,0.00,VWS V13.01,2013-05-23 11:07:00,
2013-05-23 07:09:00,78.0,71.3,30.00,ESE,112,0.0,0.0,80,0.00,,---,0.00,VWS V13.01,2013-05-23 11:09:00,
2013-05-23 07:10:00,78.0,71.3,30.00,ESE,112,3.1,3.1,80,0.00,,---,0.00,VWS V13.01,2013-05-23 11:10:00,
2013-05-23 07:12:00,78.0,71.3,30.00,SE,135,0.0,0.0,80,0.00,,---,0.00,VWS V13.01,2013-05-23 11:12:00,
2013-05-23 07:14:00,78.0,71.3,30.00,ESE,112,0.0,0.0,80,0.00,,---,0.00,VWS V13.01,2013-05-23 11:14:00,
2013-05-23 07:15:00,78.0,71.3,30.00,SE,135,0.0,0.0,80,0.00,,---,0.00,VWS V13.01,2013-05-23 11:15:00,
2013-05-23 07:16:00,78.0,71.3,30.00,East,90,0.0,0.0,80,0.00,,---,0.00,VWS V13.01,2013-05-23 11:16:00,
2013-05-23 07:17:00,78.0,71.3,30.00,SE,135,4.9,4.9,80,0.00,,---,0.00,VWS V13.01,2013-05-23 11:17:00,
2013-05-23 07:19:00,78.0,71.3,30.01,South,180,0.0,0.0,80,0.00,,---,0.00,VWS V13.01,2013-05-23 11:19:00,
2013-05-23 07:20:00,78.0,71.3,30.01,SE,135,6.2,6.2,80,0.00,,---,0.00,VWS V13.01,2013-05-23 11:20:00,
2013-05-23 07:21:00,78.0,71.3,30.00,SE,135,0.6,0.6,80,0.00,,---,0.00,VWS V13.01,2013-05-23 11:21:00,
2013-05-23 07:22:00,78.0,71.3,30.01,SSE,158,0.0,0.0,80,0.00,,---,0.00,VWS V13.01,2013-05-23 11:22:00,
2013-05-23 07:24:00,78.2,71.5,30.01,SE,135,6.0,6.0,80,0.00,,---,0.00,VWS V13.01,2013-05-23 11:24:00,
2013-05-23 07:25:00,78.0,71.3,30.01,ESE,112,0.8,0.8,80,0.00,,---,0.00,VWS V13.01,2013-05-23 11:25:00,
2013-05-23 07:26:00,78.2,71.5,30.01,SE,135,0.0,0.0,80,0.00,,---,0.00,VWS V13.01,2013-05-23 11:26:00,
2013-05-23 07:27:00,78.2,71.5,30.01,East,90,0.0,0.0,80,0.00,,---,0.00,VWS V13.01,2013-05-23 11:27:00,
2013-05-23 07:29:00,78.4,71.7,30.01,SE,135,0.0,0.0,80,0.00,,---,0.00,VWS V13.01,2013-05-23 11:29:00,
2013-05-23 07:30:00,78.4,71.7,30.01,SE,135,0.0,0.0,80,0.00,,---,0.00,VWS V13.01,2013-05-23 11:30:00,
2013-05-23 07:31:00,78.4,71.7,30.01,East,90,0.0,0.0,80,0.00,,---,0.00,VWS V13.01,2013-05-23 11:31:00,
2013-05-23 07:32:00,78.6,71.9,30.01,North,0,0.0,0.0,80,0.00,,---,0.00,VWS V13.01,2013-05-23 11:32:00,
2013-05-23 07:34:00,78.6,71.9,30.01,SE,135,0.0,0.0,80,0.00,,---,0.00,VWS V13.01,2013-05-23 11:34:00,
2013-05-23 07:35:00,78.6,71.9,30.01,East,90,0.8,0.8,80,0.00,,---,0.00,VWS V13.01,2013-05-23 11:35:00,
2013-05-23 07:36:00,78.6,71.9,30.01,SSE,158,4.9,4.9,80,0.00,,---,0.00,VWS V13.01,2013-05-23 11:36:00,
2013-05-23 07:37:00,78.6,71.9,30.01,SE,135,0.0,0.0,80,0.00,,---,0.00,VWS V13.01,2013-05-23 11:37:00,
2013-05-23 07:39:00,78.6,71.9,30.01,East,90,0.0,0.0,80,0.00,,---,0.00,VWS V13.01,2013-05-23 11:39:00,
2013-05-23 07:40:00,78.6,71.9,30.01,SE,135,2.4,2.4,80,0.00,,---,0.00,VWS V13.01,2013-05-23 11:40:00,
2013-05-23 07:41:00,78.6,71.9,30.01,ESE,112,0.0,0.0,80,0.00,,---,0.00,VWS V13.01,2013-05-23 11:41:00,
2013-05-23 07:42:00,78.9,72.2,30.01,East,90,1.3,1.3,80,0.00,,---,0.00,VWS V13.01,2013-05-23 11:42:00,
2013-05-23 07:44:00,78.9,72.2,30.01,SE,135,4.9,4.9,80,0.00,,---,0.00,VWS V13.01,2013-05-23 11:44:00,
2013-05-23 07:45:00,78.9,72.2,30.01,SSE,158,3.1,3.1,80,0.00,,---,0.00,VWS V13.01,2013-05-23 11:45:00,
2013-05-23 07:46:00,78.9,72.2,30.01,SSE,158,3.1,3.1,80,0.00,,---,0.00,VWS V13.01,2013-05-23 11:46:00,
2013-05-23 07:47:00,78.9,71.8,30.01,SSE,158,5.1,5.1,79,0.00,,---,0.00,VWS V13.01,2013-05-23 11:47:00,
2013-05-23 07:48:00,78.9,71.8,30.01,SSE,158,5.1,5.1,79,0.00,,---,0.00,VWS V13.01,2013-05-23 11:48:00,
2013-05-23 07:49:00,79.1,72.0,30.01,SSE,158,1.5,1.5,79,0.00,,---,0.00,VWS V13.01,2013-05-23 11:49:00,
2013-05-23 07:50:00,79.3,72.2,30.01,SSE,158,0.6,0.6,79,0.00,,---,0.00,VWS V13.01,2013-05-23 11:50:00,
2013-05-23 07:51:00,79.3,72.2,30.01,SSE,158,0.0,0.6,79,0.00,,---,0.00,VWS V13.01,2013-05-23 11:51:00,
2013-05-23 07:52:00,79.3,72.2,30.01,ESE,112,0.0,0.0,79,0.00,,---,0.00,VWS V13.01,2013-05-23 11:52:00,
2013-05-23 07:53:00,79.3,72.2,30.01,ESE,112,0.0,0.0,79,0.00,,---,0.00,VWS V13.01,2013-05-23 11:53:00,
2013-05-23 07:54:00,79.5,72.4,30.01,SSE,158,3.8,3.8,79,0.00,,---,0.00,VWS V13.01,2013-05-23 11:54:00,
2013-05-23 07:55:00,79.5,72.4,30.01,ESE,112,2.4,2.4,79,0.00,,---,0.00,VWS V13.01,2013-05-23 11:55:00,
2013-05-23 07:56:00,79.5,72.4,30.01,ESE,112,0.0,2.4,79,0.00,,---,0.00,VWS V13.01,2013-05-23 11:56:00,
2013-05-23 07:57:00,79.5,72.4,30.01,SE,135,4.9,4.9,79,0.00,,---,0.00,VWS V13.01,2013-05-23 11:57:00,
2013-05-23 07:58:00,79.5,72.4,30.01,SE,135,4.9,4.9,79,0.00,,---,0.00,VWS V13.01,2013-05-23 11:58:00,
2013-05-23 07:59:00,79.7,72.6,30.01,ESE,112,4.2,4.2,79,0.00,,---,0.00,VWS V13.01,2013-05-23 11:59:00,
2013-05-23 08:00:00,79.8,72.7,30.01,SE,135,0.0,0.0,79,0.00,,---,0.00,VWS V13.01,2013-05-23 12:00:00,
2013-05-23 08:01:00,79.8,72.3,30.02,SSE,158,2.4,2.4,78,0.00,,---,0.00,VWS V13.01,2013-05-23 12:01:00,
2013-05-23 08:03:00,79.8,72.3,30.02,SSW,202,0.0,0.0,78,0.00,,---,0.00,VWS V13.01,2013-05-23 12:03:00,
2013-05-23 08:04:00,80.0,72.5,30.02,NE,45,0.0,0.0,78,0.00,,---,0.00,VWS V13.01,2013-05-23 12:04:00,
2013-05-23 08:05:00,80.0,72.5,30.02,SE,135,6.2,6.2,78,0.00,,---,0.00,VWS V13.01,2013-05-23 12:05:00,
2013-05-23 08:06:00,80.2,72.7,30.02,SE,135,6.9,6.9,78,0.00,,---,0.00,VWS V13.01,2013-05-23 12:06:00,
2013-05-23 08:08:00,80.2,72.7,30.01,ESE,112,7.3,7.3,78,0.00,,---,0.00,VWS V13.01,2013-05-23 12:08:00,
2013-05-23 08:09:00,80.4,72.5,30.02,ESE,112,0.0,0.0,77,0.00,,---,0.00,VWS V13.01,2013-05-23 12:09:00,
2013-05-23 08:10:00,80.4,72.5,30.01,SE,135,5.1,5.1,77,0.00,,---,0.00,VWS V13.01,2013-05-23 12:10:00,
2013-05-23 08:11:00,80.4,72.5,30.01,East,90,3.3,3.3,77,0.00,,---,0.00,VWS V13.01,2013-05-23 12:11:00,
2013-05-23 08:13:00,80.4,72.5,30.02,SSE,158,4.4,4.4,77,0.00,,---,0.00,VWS V13.01,2013-05-23 12:13:00,
2013-05-23 08:14:00,80.6,72.3,30.01,SE,135,0.8,0.8,76,0.00,,---,0.00,VWS V13.01,2013-05-23 12:14:00,
2013-05-23 08:15:00,80.7,72.4,30.02,SE,135,4.4,4.4,76,0.00,,---,0.00,VWS V13.01,2013-05-23 12:15:00,
2013-05-23 08:16:00,80.7,72.4,30.02,SE,135,0.0,0.0,76,0.00,,---,0.00,VWS V13.01,2013-05-23 12:16:00,
2013-05-23 08:18:00,80.7,72.4,30.02,SE,135,3.3,3.3,76,0.00,,---,0.00,VWS V13.01,2013-05-23 12:18:00,
2013-05-23 08:19:00,80.9,72.6,30.02,SE,135,0.0,0.0,76,0.00,,---,0.00,VWS V13.01,2013-05-23 12:19:00,
2013-05-23 08:20:00,81.1,72.8,30.02,ESE,112,2.9,2.9,76,0.00,,---,0.00,VWS V13.01,2013-05-23 12:20:00,
2013-05-23 08:21:00,80.9,72.2,30.02,East,90,7.3,7.3,75,0.00,,---,0.00,VWS V13.01,2013-05-23 12:21:00,
2013-05-23 08:23:00,81.1,72.4,30.02,SSE,158,2.0,2.0,75,0.00,,---,0.00,VWS V13.01,2013-05-23 12:23:00,
2013-05-23 08:24:00,81.3,72.6,30.02,ENE,68,3.8,3.8,75,0.00,,---,0.00,VWS V13.01,2013-05-23 12:24:00,
2013-05-23 08:25:00,81.3,72.6,30.02,ESE,112,2.0,2.0,75,0.00,,---,0.00,VWS V13.01,2013-05-23 12:25:00,
2013-05-23 08:26:00,81.3,72.6,30.02,East,90,0.0,2.0,75,0.00,,---,0.00,VWS V13.01,2013-05-23 12:26:00,
2013-05-23 08:28:00,81.5,72.8,30.02,SE,135,0.0,0.0,75,0.00,,---,0.00,VWS V13.01,2013-05-23 12:28:00,
2013-05-23 08:30:00,81.6,72.9,30.02,ENE,68,2.9,2.9,75,0.00,,---,0.00,VWS V13.01,2013-05-23 12:30:00,
2013-05-23 08:31:00,81.6,72.9,30.02,SE,135,4.0,4.0,75,0.00,,---,0.00,VWS V13.01,2013-05-23 12:31:00,
2013-05-23 08:33:00,82.0,73.3,30.02,East,90,0.0,0.0,75,0.00,,---,0.00,VWS V13.01,2013-05-23 12:33:00,
2013-05-23 08:35:00,82.0,73.3,30.02,NE,45,0.0,0.0,75,0.00,,---,0.00,VWS V13.01,2013-05-23 12:35:00,
2013-05-23 08:36:00,82.2,73.5,30.02,East,90,1.5,1.5,75,0.00,,---,0.00,VWS V13.01,2013-05-23 12:36:00,
2013-05-23 08:38:00,82.2,73.5,30.02,East,90,2.0,2.0,75,0.00,,---,0.00,VWS V13.01,2013-05-23 12:38:00,
2013-05-23 08:39:00,82.2,73.5,30.02,East,90,2.0,2.0,75,0.00,,---,0.00,VWS V13.01,2013-05-23 12:39:00,
2013-05-23 08:40:00,82.2,73.5,30.02,SSE,158,0.0,0.0,75,0.00,,---,0.00,VWS V13.01,2013-05-23 12:40:00,
2013-05-23 08:41:00,82.4,73.7,30.02,ENE,68,1.7,1.7,75,0.00,,---,0.00,VWS V13.01,2013-05-23 12:41:00,
2013-05-23 08:43:00,82.4,73.7,30.02,SSE,158,2.9,2.9,75,0.00,,---,0.00,VWS V13.01,2013-05-23 12:43:00,
2013-05-23 08:44:00,82.4,73.7,30.02,SSE,158,2.9,2.9,75,0.00,,---,0.00,VWS V13.01,2013-05-23 12:44:00,
2013-05-23 08:45:00,82.5,73.4,30.02,East,90,8.5,8.5,74,0.00,,---,0.00,VWS V13.01,2013-05-23 12:45:00,
2013-05-23 08:46:00,82.5,73.4,30.02,ESE,112,2.4,2.4,74,0.00,,---,0.00,VWS V13.01,2013-05-23 12:46:00,
2013-05-23 08:48:00,82.4,73.3,30.03,NNE,22,5.1,5.1,74,0.00,,---,0.00,VWS V13.01,2013-05-23 12:48:00,
2013-05-23 08:49:00,82.4,73.3,30.03,ENE,68,8.9,8.9,74,0.00,,---,0.00,VWS V13.01,2013-05-23 12:49:00,
2013-05-23 08:50:00,82.4,73.3,30.03,ENE,68,8.9,8.9,74,0.00,,---,0.00,VWS V13.01,2013-05-23 12:50:00,
2013-05-23 08:51:00,82.4,73.3,30.03,ENE,68,10.9,10.9,74,0.00,,---,0.00,VWS V13.01,2013-05-23 12:51:00,
2013-05-23 08:54:00,82.5,73.4,30.03,ENE,68,10.0,10.0,74,0.00,,---,0.00,VWS V13.01,2013-05-23 12:54:00,
2013-05-23 08:55:00,82.4,73.3,30.03,ESE,112,3.8,3.8,74,0.00,,---,0.00,VWS V13.01,2013-05-23 12:55:00,
2013-05-23 08:56:00,82.5,73.4,30.03,East,90,0.0,0.0,74,0.00,,---,0.00,VWS V13.01,2013-05-23 12:56:00,
2013-05-23 08:59:00,82.5,73.4,30.03,ENE,68,3.8,3.8,74,0.00,,---,0.00,VWS V13.01,2013-05-23 12:59:00,
2013-05-23 09:00:00,82.5,73.4,30.03,ESE,112,4.4,4.4,74,0.00,,---,0.00,VWS V13.01,2013-05-23 13:00:00,
2013-05-23 09:01:00,82.5,73.4,30.03,SE,135,6.9,6.9,74,0.00,,---,0.00,VWS V13.01,2013-05-23 13:01:00,
2013-05-23 09:04:00,82.5,73.0,30.04,ENE,68,3.3,3.3,73,0.00,,---,0.00,VWS V13.01,2013-05-23 13:04:00,
2013-05-23 09:05:00,82.5,73.0,30.03,East,90,5.5,5.5,73,0.00,,---,0.00,VWS V13.01,2013-05-23 13:05:00,
2013-05-23 09:06:00,82.5,73.4,30.03,SE,135,10.9,10.9,74,0.00,,---,0.00,VWS V13.01,2013-05-23 13:06:00,
2013-05-23 09:09:00,82.5,73.0,30.04,SSE,158,0.0,0.0,73,0.00,,---,0.00,VWS V13.01,2013-05-23 13:09:00,
2013-05-23 09:10:00,82.5,73.0,30.03,NE,45,0.0,0.0,73,0.00,,---,0.00,VWS V13.01,2013-05-23 13:10:00,
2013-05-23 09:11:00,82.5,73.0,30.03,ENE,68,2.0,2.0,73,0.00,,---,0.00,VWS V13.01,2013-05-23 13:11:00,
2013-05-23 09:14:00,82.5,73.0,30.03,ESE,112,2.0,2.0,73,0.00,,---,0.00,VWS V13.01,2013-05-23 13:14:00,
2013-05-23 09:15:00,82.5,73.0,30.03,ENE,68,2.6,2.6,73,0.00,,---,0.00,VWS V13.01,2013-05-23 13:15:00,
2013-05-23 09:16:00,82.5,73.0,30.03,ENE,68,4.6,4.6,73,0.00,,---,0.00,VWS V13.01,2013-05-23 13:16:00,
2013-05-23 09:19:00,82.5,73.0,30.03,NE,45,4.6,4.6,73,0.00,,---,0.00,VWS V13.01,2013-05-23 13:19:00,
2013-05-23 09:20:00,82.5,73.0,30.03,East,90,2.9,2.9,73,0.00,,---,0.00,VWS V13.01,2013-05-23 13:20:00,
2013-05-23 09:21:00,82.5,73.0,30.03,East,90,6.4,6.4,73,0.00,,---,0.00,VWS V13.01,2013-05-23 13:21:00,
2013-05-23 09:24:00,82.5,73.0,30.03,ENE,68,6.9,6.9,73,0.00,,---,0.00,VWS V13.01,2013-05-23 13:24:00,
2013-05-23 09:26:00,82.5,73.0,30.03,East,90,7.6,7.6,73,0.00,,---,0.00,VWS V13.01,2013-05-23 13:26:00,
2013-05-23 09:29:00,82.7,73.2,30.03,SE,135,7.1,7.1,73,0.00,,---,0.00,VWS V13.01,2013-05-23 13:29:00,
2013-05-23 09:31:00,82.9,73.4,30.03,East,90,10.5,10.5,73,0.00,,---,0.00,VWS V13.01,2013-05-23 13:31:00,
2013-05-23 09:34:00,83.1,73.6,30.03,East,90,10.7,10.7,73,0.00,,---,0.00,VWS V13.01,2013-05-23 13:34:00,
2013-05-23 09:36:00,83.1,73.6,30.04,ENE,68,6.4,6.4,73,0.00,,---,0.00,VWS V13.01,2013-05-23 13:36:00,
2013-05-23 09:39:00,83.3,73.3,30.04,ENE,68,0.8,6.4,72,0.00,,---,0.00,VWS V13.01,2013-05-23 13:39:00,
2013-05-23 09:40:00,83.3,73.3,30.04,ENE,68,0.8,0.8,72,0.00,,---,0.00,VWS V13.01,2013-05-23 13:40:00,
2013-05-23 09:41:00,83.4,73.4,30.04,East,90,7.3,7.3,72,0.00,,---,0.00,VWS V13.01,2013-05-23 13:41:00,
2013-05-23 09:44:00,83.4,73.4,30.03,SE,135,4.2,4.2,72,0.00,,---,0.00,VWS V13.01,2013-05-23 13:44:00,
2013-05-23 09:45:00,83.4,73.4,30.03,SE,135,4.2,4.2,72,0.00,,---,0.00,VWS V13.01,2013-05-23 13:45:00,
2013-05-23 09:46:00,83.8,73.8,30.03,ENE,68,2.9,2.9,72,0.00,,---,0.00,VWS V13.01,2013-05-23 13:46:00,
2013-05-23 09:47:00,83.8,73.8,30.03,ENE,68,2.9,2.9,72,0.00,,---,0.00,VWS V13.01,2013-05-23 13:47:00,
2013-05-23 09:49:00,83.8,73.8,30.03,NE,45,0.0,0.0,72,0.00,,---,0.00,VWS V13.01,2013-05-23 13:49:00,
2013-05-23 09:50:00,83.8,73.8,30.03,NE,45,0.0,0.0,72,0.00,,---,0.00,VWS V13.01,2013-05-23 13:50:00,
2013-05-23 09:51:00,83.8,74.2,30.03,NE,45,5.1,5.1,73,0.00,,---,0.00,VWS V13.01,2013-05-23 13:51:00,
2013-05-23 09:52:00,83.8,74.2,30.03,NE,45,5.1,5.1,73,0.00,,---,0.00,VWS V13.01,2013-05-23 13:52:00,
2013-05-23 09:54:00,83.8,74.6,30.03,East,90,0.0,0.0,74,0.00,,---,0.00,VWS V13.01,2013-05-23 13:54:00,
2013-05-23 09:55:00,83.8,74.6,30.03,East,90,0.0,0.0,74,0.00,,---,0.00,VWS V13.01,2013-05-23 13:55:00,
2013-05-23 09:56:00,83.8,74.6,30.03,ENE,68,6.7,6.7,74,0.00,,---,0.00,VWS V13.01,2013-05-23 13:56:00,
2013-05-23 09:57:00,84.0,74.8,30.03,East,90,6.9,6.9,74,0.00,,---,0.00,VWS V13.01,2013-05-23 13:57:00,
2013-05-23 09:59:00,84.0,74.4,30.03,NE,45,2.4,2.4,73,0.00,,---,0.00,VWS V13.01,2013-05-23 13:59:00,
2013-05-23 10:00:00,84.0,74.4,30.03,NE,45,2.4,2.4,73,0.00,,---,0.00,VWS V13.01,2013-05-23 14:00:00,
2013-05-23 10:01:00,84.0,74.4,30.03,East,90,8.5,8.5,73,0.00,,---,0.00,VWS V13.01,2013-05-23 14:01:00,
2013-05-23 10:02:00,84.0,74.4,30.03,SE,135,7.1,7.1,73,0.00,,---,0.00,VWS V13.01,2013-05-23 14:02:00,
2013-05-23 10:04:00,84.3,74.3,30.04,NNE,22,4.6,4.6,72,0.00,,---,0.00,VWS V13.01,2013-05-23 14:04:00,
2013-05-23 10:05:00,84.3,74.3,30.04,NNE,22,4.6,4.6,72,0.00,,---,0.00,VWS V13.01,2013-05-23 14:05:00,
2013-05-23 10:06:00,84.3,74.3,30.04,ENE,68,1.1,1.1,72,0.00,,---,0.00,VWS V13.01,2013-05-23 14:06:00,
2013-05-23 10:07:00,84.3,74.3,30.04,ENE,68,1.1,1.1,72,0.00,,---,0.00,VWS V13.01,2013-05-23 14:07:00,
2013-05-23 10:09:00,84.3,74.7,30.04,ESE,112,4.2,4.2,73,0.00,,---,0.00,VWS V13.01,2013-05-23 14:09:00,
2013-05-23 10:10:00,84.3,74.7,30.04,ESE,112,4.2,4.2,73,0.00,,---,0.00,VWS V13.01,2013-05-23 14:10:00,
2013-05-23 10:11:00,84.2,75.0,30.03,ESE,112,5.8,5.8,74,0.02,,---,0.02,VWS V13.01,2013-05-23 14:11:00,
2013-05-23 10:12:00,84.2,75.0,30.03,ESE,112,5.8,5.8,74,0.02,,---,0.02,VWS V13.01,2013-05-23 14:12:00,
2013-05-23 10:14:00,84.0,75.2,30.03,ESE,112,8.9,8.9,75,0.02,,---,0.02,VWS V13.01,2013-05-23 14:14:00,
2013-05-23 10:15:00,83.8,75.0,30.03,East,90,4.4,4.4,75,0.02,,---,0.02,VWS V13.01,2013-05-23 14:15:00,
2013-05-23 10:16:00,83.6,74.8,30.03,ENE,68,3.5,3.5,75,0.02,,---,0.02,VWS V13.01,2013-05-23 14:16:00,
2013-05-23 10:17:00,83.6,74.8,30.03,ENE,68,3.5,3.5,75,0.02,,---,0.02,VWS V13.01,2013-05-23 14:17:00,
2013-05-23 10:19:00,83.4,75.1,30.03,SE,135,1.1,1.1,76,0.02,,---,0.02,VWS V13.01,2013-05-23 14:19:00,
2013-05-23 10:20:00,83.4,75.1,30.03,ESE,112,8.0,8.0,76,0.02,,---,0.02,VWS V13.01,2013-05-23 14:20:00,
2013-05-23 10:21:00,83.4,75.1,30.03,East,90,7.3,7.3,76,0.02,,---,0.02,VWS V13.01,2013-05-23 14:21:00,
2013-05-23 10:22:00,83.4,75.1,30.03,East,90,7.3,7.3,76,0.02,,---,0.02,VWS V13.01,2013-05-23 14:22:00,
2013-05-23 10:24:00,83.6,75.2,30.03,ESE,112,4.4,4.4,76,0.02,,---,0.02,VWS V13.01,2013-05-23 14:24:00,
2013-05-23 10:25:00,83.8,75.4,30.02,SSE,158,3.3,3.3,76,0.02,,---,0.02,VWS V13.01,2013-05-23 14:25:00,
2013-05-23 10:26:00,83.8,75.4,30.03,ENE,68,11.4,11.4,76,0.02,,---,0.02,VWS V13.01,2013-05-23 14:26:00,
2013-05-23 10:27:00,83.8,75.4,30.03,ENE,68,11.4,11.4,76,0.02,,---,0.02,VWS V13.01,2013-05-23 14:27:00,
2013-05-23 10:28:00,83.8,75.4,30.03,East,90,10.7,10.7,76,0.02,,---,0.02,VWS V13.01,2013-05-23 14:28:00,
2013-05-23 10:30:00,83.8,75.0,30.02,ENE,68,6.0,6.0,75,0.02,,---,0.02,VWS V13.01,2013-05-23 14:30:00,
2013-05-23 10:31:00,83.8,75.0,30.02,ENE,68,0.0,0.0,75,0.02,,---,0.02,VWS V13.01,2013-05-23 14:31:00,
2013-05-23 10:32:00,83.8,75.0,30.03,NNE,22,5.1,5.1,75,0.02,,---,0.02,VWS V13.01,2013-05-23 14:32:00,
2013-05-23 10:33:00,83.8,75.0,30.03,NNE,22,5.1,5.1,75,0.02,,---,0.02,VWS V13.01,2013-05-23 14:33:00,
2013-05-23 10:35:00,84.0,75.2,30.03,SE,135,2.0,2.0,75,0.02,,---,0.02,VWS V13.01,2013-05-23 14:35:00,
2013-05-23 10:36:00,84.2,75.8,30.03,ENE,68,11.1,11.1,76,0.02,,---,0.02,VWS V13.01,2013-05-23 14:36:00,
2013-05-23 10:37:00,84.3,75.5,30.02,ESE,112,2.9,2.9,75,0.02,,---,0.02,VWS V13.01,2013-05-23 14:37:00,
2013-05-23 10:38:00,84.3,75.5,30.02,ESE,112,2.9,2.9,75,0.02,,---,0.02,VWS V13.01,2013-05-23 14:38:00,
2013-05-23 10:40:00,84.5,75.3,30.03,SE,135,6.4,6.4,74,0.02,,---,0.02,VWS V13.01,2013-05-23 14:40:00,
2013-05-23 10:41:00,84.7,75.5,30.03,ENE,68,6.0,6.0,74,0.02,,---,0.02,VWS V13.01,2013-05-23 14:41:00,
2013-05-23 10:42:00,84.5,75.3,30.03,SE,135,0.0,0.0,74,0.02,,---,0.02,VWS V13.01,2013-05-23 14:42:00,
2013-05-23 10:43:00,84.5,75.3,30.03,SE,135,0.0,0.0,74,0.02,,---,0.02,VWS V13.01,2013-05-23 14:43:00,
2013-05-23 10:45:00,84.7,75.1,30.03,SE,135,3.3,5.1,73,0.02,,---,0.02,VWS V13.01,2013-05-23 14:45:00,
2013-05-23 10:46:00,84.7,75.1,30.03,ESE,112,2.4,2.4,73,0.02,,---,0.02,VWS V13.01,2013-05-23 14:46:00,
2013-05-23 10:47:00,84.7,75.1,30.03,East,90,4.0,4.0,73,0.02,,---,0.02,VWS V13.01,2013-05-23 14:47:00,
2013-05-23 10:48:00,84.7,75.1,30.03,East,90,4.0,4.0,73,0.02,,---,0.02,VWS V13.01,2013-05-23 14:48:00,
2013-05-23 10:50:00,84.7,74.7,30.03,East,90,0.0,0.0,72,0.02,,---,0.02,VWS V13.01,2013-05-23 14:50:00,
2013-05-23 10:51:00,84.9,74.9,30.03,ESE,112,6.2,6.2,72,0.02,,---,0.02,VWS V13.01,2013-05-23 14:51:00,
2013-05-23 10:52:00,84.9,74.9,30.03,ESE,112,6.2,6.2,72,0.02,,---,0.02,VWS V13.01,2013-05-23 14:52:00,
2013-05-23 10:53:00,84.9,74.9,30.03,East,90,4.2,4.2,72,0.02,,---,0.02,VWS V13.01,2013-05-23 14:53:00,
2013-05-23 10:55:00,85.1,74.6,30.03,North,0,0.0,0.0,71,0.02,,---,0.02,VWS V13.01,2013-05-23 14:55:00,
2013-05-23 10:56:00,85.1,74.6,30.02,ENE,68,0.0,0.0,71,0.02,,---,0.02,VWS V13.01,2013-05-23 14:56:00,
2013-05-23 10:57:00,85.1,74.6,30.02,ENE,68,0.0,0.0,71,0.02,,---,0.02,VWS V13.01,2013-05-23 14:57:00,
2013-05-23 10:58:00,85.2,74.7,30.03,SSE,158,0.0,0.0,71,0.02,,---,0.02,VWS V13.01,2013-05-23 14:58:00,
2013-05-23 11:00:00,85.6,74.7,30.03,East,90,8.2,8.2,70,0.02,,---,0.02,VWS V13.01,2013-05-23 15:00:00,
2013-05-23 11:01:00,85.6,74.3,30.03,East,90,5.3,5.3,69,0.02,,---,0.02,VWS V13.01,2013-05-23 15:01:00,
2013-05-23 11:02:00,85.6,74.3,30.03,NE,45,1.5,5.3,69,0.02,,---,0.02,VWS V13.01,2013-05-23 15:02:00,
2013-05-23 11:03:00,85.8,74.5,30.02,ESE,112,8.2,8.2,69,0.02,,---,0.02,VWS V13.01,2013-05-23 15:03:00,
2013-05-23 11:05:00,85.8,74.5,30.02,East,90,3.5,3.5,69,0.02,,---,0.02,VWS V13.01,2013-05-23 15:05:00,
2013-05-23 11:06:00,86.1,74.3,30.02,SE,135,3.5,3.5,68,0.02,,---,0.02,VWS V13.01,2013-05-23 15:06:00,
2013-05-23 11:07:00,86.1,74.8,30.03,SE,135,0.0,0.0,69,0.00,,---,0.02,VWS V13.01,2013-05-23 15:07:00,
2013-05-23 11:08:00,86.1,74.8,30.03,ENE,68,4.6,4.6,69,0.00,,---,0.02,VWS V13.01,2013-05-23 15:08:00,
2013-05-23 11:10:00,86.3,74.9,30.03,NE,45,6.7,6.7,69,0.00,,---,0.02,VWS V13.01,2013-05-23 15:10:00,
2013-05-23 11:11:00,86.5,75.1,30.02,ESE,112,1.3,1.3,69,0.00,,---,0.02,VWS V13.01,2013-05-23 15:11:00,
2013-05-23 11:12:00,86.5,74.7,30.02,South,180,0.0,0.0,68,0.00,,---,0.02,VWS V13.01,2013-05-23 15:12:00,
2013-05-23 11:13:00,86.5,74.7,30.02,East,90,12.0,12.0,68,0.00,,---,0.02,VWS V13.01,2013-05-23 15:13:00,
2013-05-23 11:15:00,86.5,74.7,30.02,East,90,6.9,6.9,68,0.00,,---,0.02,VWS V13.01,2013-05-23 15:15:00,
2013-05-23 11:16:00,86.7,74.9,30.02,ESE,112,2.2,2.2,68,0.00,,---,0.02,VWS V13.01,2013-05-23 15:16:00,
2013-05-23 11:18:00,86.7,74.9,30.02,East,90,5.1,5.1,68,0.00,,---,0.02,VWS V13.01,2013-05-23 15:18:00,
2013-05-23 11:20:00,86.7,74.9,30.02,NE,45,4.2,4.2,68,0.00,,---,0.02,VWS V13.01,2013-05-23 15:20:00,
2013-05-23 11:21:00,86.7,74.9,30.02,East,90,8.0,8.0,68,0.00,,---,0.02,VWS V13.01,2013-05-23 15:21:00,
2013-05-23 11:23:00,86.9,75.1,30.02,South,180,2.2,2.2,68,0.00,,---,0.02,VWS V13.01,2013-05-23 15:23:00,
2013-05-23 11:26:00,86.9,75.1,30.02,SE,135,6.4,6.4,68,0.00,,---,0.02,VWS V13.01,2013-05-23 15:26:00,
2013-05-23 11:28:00,86.9,74.6,30.02,East,90,7.3,7.3,67,0.00,,---,0.02,VWS V13.01,2013-05-23 15:28:00,
2013-05-23 11:30:00,87.0,74.7,30.02,ESE,112,6.2,6.2,67,0.00,,---,0.02,VWS V13.01,2013-05-23 15:30:00,
2013-05-23 11:31:00,87.0,74.7,30.02,ENE,68,10.9,10.9,67,0.00,,---,0.02,VWS V13.01,2013-05-23 15:31:00,
2013-05-23 11:33:00,86.9,74.6,30.02,ENE,68,10.5,10.5,67,0.00,,---,0.02,VWS V13.01,2013-05-23 15:33:00,
2013-05-23 11:36:00,86.7,74.9,30.01,NE,45,5.1,5.1,68,0.00,,---,0.02,VWS V13.01,2013-05-23 15:36:00,
2013-05-23 11:38:00,86.5,74.2,30.02,East,90,2.4,2.4,67,0.00,,---,0.02,VWS V13.01,2013-05-23 15:38:00,
2013-05-23 11:39:00,86.5,74.2,30.02,East,90,2.4,2.4,67,0.00,,---,0.02,VWS V13.01,2013-05-23 15:39:00,
2013-05-23 11:41:00,86.5,74.2,30.02,NNE,22,8.9,8.9,67,0.00,,---,0.02,VWS V13.01,2013-05-23 15:41:00,
2013-05-23 11:43:00,86.5,74.7,30.02,SSE,158,6.9,6.9,68,0.00,,---,0.02,VWS V13.01,2013-05-23 15:43:00,
2013-05-23 11:44:00,86.5,74.7,30.02,SSE,158,6.9,6.9,68,0.00,,---,0.02,VWS V13.01,2013-05-23 15:44:00,
2013-05-23 11:46:00,86.5,74.7,30.02,South,180,0.8,0.8,68,0.00,,---,0.02,VWS V13.01,2013-05-23 15:46:00,
2013-05-23 11:48:00,86.7,74.4,30.01,ENE,68,9.8,9.8,67,0.00,,---,0.02,VWS V13.01,2013-05-23 15:48:00,
2013-05-23 11:49:00,86.7,74.4,30.01,ENE,68,9.8,9.8,67,0.00,,---,0.02,VWS V13.01,2013-05-23 15:49:00,
2013-05-23 11:51:00,86.7,74.4,30.02,East,90,0.0,0.0,67,0.00,,---,0.02,VWS V13.01,2013-05-23 15:51:00,
2013-05-23 11:52:00,86.7,74.4,30.02,NE,45,4.4,4.4,67,0.00,,---,0.02,VWS V13.01,2013-05-23 15:52:00,
2013-05-23 11:53:00,86.5,74.7,30.01,East,90,2.0,2.0,68,0.00,,---,0.02,VWS V13.01,2013-05-23 15:53:00,
2013-05-23 11:54:00,86.5,74.7,30.01,East,90,2.0,2.0,68,0.00,,---,0.02,VWS V13.01,2013-05-23 15:54:00,
2013-05-23 11:56:00,86.3,74.5,30.01,ENE,68,0.0,0.0,68,0.00,,---,0.02,VWS V13.01,2013-05-23 15:56:00,
2013-05-23 11:57:00,86.3,74.5,30.01,ENE,68,0.0,0.0,68,0.00,,---,0.02,VWS V13.01,2013-05-23 15:57:00,
2013-05-23 11:59:00,86.1,74.3,30.01,ESE,112,6.2,6.2,68,0.00,,---,0.02,VWS V13.01,2013-05-23 15:59:00,
2013-05-23 12:01:00,85.8,74.0,30.01,ENE,68,13.6,13.6,68,0.00,,---,0.02,VWS V13.01,2013-05-23 16:01:00,
2013-05-23 12:02:00,85.8,74.0,30.01,ENE,68,13.6,13.6,68,0.00,,---,0.02,VWS V13.01,2013-05-23 16:02:00,
2013-05-23 12:04:00,85.8,74.0,30.02,East,90,10.7,10.7,68,0.00,,---,0.02,VWS V13.01,2013-05-23 16:04:00,
2013-05-23 12:06:00,85.2,73.4,30.02,ESE,112,8.9,8.9,68,0.00,,---,0.02,VWS V13.01,2013-05-23 16:06:00,
2013-05-23 12:07:00,85.2,73.4,30.02,ESE,112,8.9,8.9,68,0.00,,---,0.02,VWS V13.01,2013-05-23 16:07:00,
2013-05-23 12:09:00,84.7,74.7,30.02,SSE,158,2.6,2.6,72,0.00,,---,0.02,VWS V13.01,2013-05-23 16:09:00,
2013-05-23 12:11:00,84.0,74.8,30.02,SE,135,12.3,12.3,74,0.04,,---,0.06,VWS V13.01,2013-05-23 16:11:00,
2013-05-23 12:12:00,84.0,74.8,30.02,SE,135,12.3,12.3,74,0.04,,---,0.06,VWS V13.01,2013-05-23 16:12:00,
2013-05-23 12:14:00,83.1,74.4,30.02,ENE,68,5.1,5.1,75,0.04,,---,0.06,VWS V13.01,2013-05-23 16:14:00,
2013-05-23 12:16:00,82.2,73.9,30.02,East,90,0.0,0.0,76,0.06,,---,0.08,VWS V13.01,2013-05-23 16:16:00,
2013-05-23 12:17:00,82.0,73.7,30.02,East,90,0.0,0.0,76,0.06,,---,0.08,VWS V13.01,2013-05-23 16:17:00,
2013-05-23 12:19:00,81.6,73.7,30.02,East,90,4.0,4.0,77,0.06,,---,0.08,VWS V13.01,2013-05-23 16:19:00,
2013-05-23 12:20:00,81.5,74.0,30.01,South,180,5.5,5.5,78,0.06,,---,0.08,VWS V13.01,2013-05-23 16:20:00,
2013-05-23 12:21:00,81.3,73.8,30.01,SE,135,0.6,0.6,78,0.06,,---,0.08,VWS V13.01,2013-05-23 16:21:00,
2013-05-23 12:22:00,81.3,73.8,30.01,ESE,112,0.0,0.6,78,0.06,,---,0.08,VWS V13.01,2013-05-23 16:22:00,
2013-05-23 12:24:00,81.3,73.8,30.01,ENE,68,12.0,12.0,78,0.08,,---,0.10,VWS V13.01,2013-05-23 16:24:00,
2013-05-23 12:25:00,81.3,73.8,30.01,ENE,68,12.0,12.0,78,0.08,,---,0.10,VWS V13.01,2013-05-23 16:25:00,
2013-05-23 12:26:00,81.5,74.0,30.01,ENE,68,1.7,1.7,78,0.08,,---,0.10,VWS V13.01,2013-05-23 16:26:00,
2013-05-23 12:27:00,81.6,74.1,30.01,ENE,68,0.0,0.0,78,0.08,,---,0.10,VWS V13.01,2013-05-23 16:27:00,
2013-05-23 12:29:00,81.6,74.5,30.01,ESE,112,2.2,2.2,79,0.08,,---,0.10,VWS V13.01,2013-05-23 16:29:00,
2013-05-23 12:30:00,81.6,74.5,30.01,ESE,112,2.2,2.2,79,0.08,,---,0.10,VWS V13.01,2013-05-23 16:30:00,
2013-05-23 12:31:00,82.0,74.5,30.01,ESE,112,6.7,6.7,78,0.08,,---,0.10,VWS V13.01,2013-05-23 16:31:00,
2013-05-23 12:32:00,82.0,74.5,30.01,East,90,0.0,0.0,78,0.08,,---,0.10,VWS V13.01,2013-05-23 16:32:00,
2013-05-23 12:34:00,82.0,74.5,30.00,East,90,4.2,4.2,78,0.08,,---,0.10,VWS V13.01,2013-05-23 16:34:00,
2013-05-23 12:35:00,82.0,74.5,30.00,East,90,4.2,4.2,78,0.08,,---,0.10,VWS V13.01,2013-05-23 16:35:00,
2013-05-23 12:36:00,82.2,74.7,30.00,East,90,1.3,1.3,78,0.08,,---,0.10,VWS V13.01,2013-05-23 16:36:00,
2013-05-23 12:37:00,82.2,74.3,30.01,East,90,2.2,2.2,77,0.08,,---,0.10,VWS V13.01,2013-05-23 16:37:00,
2013-05-23 12:39:00,82.5,74.6,30.00,NE,45,6.0,6.0,77,0.08,,---,0.10,VWS V13.01,2013-05-23 16:39:00,
2013-05-23 12:40:00,82.5,74.6,30.00,NE,45,6.0,6.0,77,0.08,,---,0.10,VWS V13.01,2013-05-23 16:40:00,
2013-05-23 12:41:00,82.5,74.6,30.00,ENE,68,10.5,10.5,77,0.08,,---,0.10,VWS V13.01,2013-05-23 16:41:00,
2013-05-23 12:42:00,82.5,74.6,30.00,East,90,2.4,2.4,77,0.08,,---,0.10,VWS V13.01,2013-05-23 16:42:00,
2013-05-23 12:44:00,82.7,74.8,30.00,ESE,112,3.8,3.8,77,0.08,,---,0.10,VWS V13.01,2013-05-23 16:44:00,
2013-05-23 12:45:00,82.7,74.8,30.00,ESE,112,3.8,3.8,77,0.08,,---,0.10,VWS V13.01,2013-05-23 16:45:00,
2013-05-23 12:46:00,82.9,74.9,30.00,East,90,4.0,4.0,77,0.08,,---,0.10,VWS V13.01,2013-05-23 16:46:00,
2013-05-23 12:47:00,83.1,75.2,30.00,NE,45,0.0,0.0,77,0.08,,---,0.10,VWS V13.01,2013-05-23 16:47:00,
2013-05-23 12:49:00,83.3,74.9,30.00,ESE,112,8.0,8.0,76,0.08,,---,0.10,VWS V13.01,2013-05-23 16:49:00,
2013-05-23 12:50:00,83.3,74.9,30.00,ESE,112,8.0,8.0,76,0.08,,---,0.10,VWS V13.01,2013-05-23 16:50:00,
2013-05-23 12:52:00,83.4,75.1,30.00,ENE,68,8.9,8.9,76,0.08,,---,0.10,VWS V13.01,2013-05-23 16:52:00,
2013-05-23 12:54:00,83.6,74.8,30.00,SE,135,4.4,4.4,75,0.08,,---,0.10,VWS V13.01,2013-05-23 16:54:00,
2013-05-23 12:55:00,83.6,74.8,30.00,SE,135,4.4,4.4,75,0.08,,---,0.10,VWS V13.01,2013-05-23 16:55:00,
2013-05-23 12:57:00,83.8,75.0,29.99,ESE,112,0.0,0.0,75,0.08,,---,0.10,VWS V13.01,2013-05-23 16:57:00,
2013-05-23 12:59:00,84.0,75.2,30.00,ESE,112,7.1,7.1,75,0.08,,---,0.10,VWS V13.01,2013-05-23 16:59:00,
2013-05-23 13:00:00,84.0,75.2,30.00,ESE,112,7.1,7.1,75,0.08,,---,0.10,VWS V13.01,2013-05-23 17:00:00,
2013-05-23 13:02:00,84.0,74.8,30.00,East,90,13.1,13.1,74,0.08,,---,0.10,VWS V13.01,2013-05-23 17:02:00,
2013-05-23 13:03:00,84.0,74.8,30.00,ENE,68,0.0,0.0,74,0.08,,---,0.10,VWS V13.01,2013-05-23 17:03:00,
2013-05-23 13:04:00,84.3,75.1,30.00,East,90,8.9,8.9,74,0.08,,---,0.10,VWS V13.01,2013-05-23 17:04:00,
2013-05-23 13:05:00,84.3,75.1,30.00,East,90,8.9,8.9,74,0.08,,---,0.10,VWS V13.01,2013-05-23 17:05:00,
2013-05-23 13:07:00,84.3,74.7,30.00,ENE,68,12.3,12.3,73,0.08,,---,0.10,VWS V13.01,2013-05-23 17:07:00,
2013-05-23 13:08:00,84.3,74.7,30.00,ESE,112,9.6,9.6,73,0.06,,---,0.10,VWS V13.01,2013-05-23 17:08:00,
2013-05-23 13:09:00,84.3,74.7,30.00,SE,135,6.4,6.4,73,0.06,,---,0.10,VWS V13.01,2013-05-23 17:09:00,
2013-05-23 13:10:00,84.3,74.7,30.00,SE,135,6.4,6.4,73,0.06,,---,0.10,VWS V13.01,2013-05-23 17:10:00,
2013-05-23 13:12:00,84.3,74.7,30.00,ENE,68,2.4,2.4,73,0.04,,---,0.10,VWS V13.01,2013-05-23 17:12:00,
2013-05-23 13:13:00,84.2,74.6,30.00,ENE,68,3.8,3.8,73,0.04,,---,0.10,VWS V13.01,2013-05-23 17:13:00,
2013-05-23 13:15:00,84.0,74.4,30.00,ENE,68,6.9,6.9,73,0.04,,---,0.10,VWS V13.01,2013-05-23 17:15:00,
2013-05-23 13:17:00,84.0,74.0,30.00,ESE,112,9.3,9.3,72,0.02,,---,0.10,VWS V13.01,2013-05-23 17:17:00,
2013-05-23 13:18:00,84.0,74.0,30.00,ENE,68,8.0,8.0,72,0.02,,---,0.10,VWS V13.01,2013-05-23 17:18:00,
2013-05-23 13:20:00,84.0,74.0,29.99,East,90,1.1,1.1,72,0.02,,---,0.10,VWS V13.01,2013-05-23 17:20:00,
2013-05-23 13:22:00,84.0,74.0,29.99,ENE,68,15.8,15.8,72,0.02,,---,0.10,VWS V13.01,2013-05-23 17:22:00,
2013-05-23 13:23:00,84.0,74.0,29.99,ENE,68,4.0,4.0,72,0.00,,---,0.10,VWS V13.01,2013-05-23 17:23:00,
2013-05-23 13:25:00,84.3,74.3,30.00,ENE,68,5.3,5.3,72,0.00,,---,0.10,VWS V13.01,2013-05-23 17:25:00,
2013-05-23 13:27:00,84.3,74.3,30.00,ENE,68,7.8,7.8,72,0.00,,---,0.10,VWS V13.01,2013-05-23 17:27:00,
2013-05-23 13:28:00,84.5,74.5,30.00,ENE,68,12.3,12.3,72,0.00,,---,0.10,VWS V13.01,2013-05-23 17:28:00,
2013-05-23 13:30:00,84.7,75.1,30.00,East,90,7.3,7.3,73,0.00,,---,0.10,VWS V13.01,2013-05-23 17:30:00,
2013-05-23 13:32:00,84.9,74.9,30.00,ENE,68,5.1,9.6,72,0.00,,---,0.10,VWS V13.01,2013-05-23 17:32:00,
2013-05-23 13:33:00,85.1,75.1,29.99,ESE,112,6.4,6.4,72,0.00,,---,0.10,VWS V13.01,2013-05-23 17:33:00,
2013-05-23 13:35:00,85.2,75.2,30.00,ESE,112,3.1,3.1,72,0.00,,---,0.10,VWS V13.01,2013-05-23 17:35:00,
2013-05-23 13:37:00,85.2,74.7,30.00,ESE,112,12.0,12.0,71,0.00,,---,0.10,VWS V13.01,2013-05-23 17:37:00,
2013-05-23 13:38:00,85.4,74.9,29.99,ESE,112,9.3,9.3,71,0.00,,---,0.10,VWS V13.01,2013-05-23 17:38:00,
2013-05-23 13:40:00,85.6,75.1,29.99,ESE,112,14.7,14.7,71,0.00,,---,0.10,VWS V13.01,2013-05-23 17:40:00,
2013-05-23 13:41:00,85.6,75.1,29.99,ESE,112,14.7,14.7,71,0.00,,---,0.10,VWS V13.01,2013-05-23 17:41:00,
2013-05-23 13:42:00,85.8,75.3,29.99,North,0,10.2,10.2,71,0.00,,---,0.10,VWS V13.01,2013-05-23 17:42:00,
2013-05-23 13:43:00,86.0,75.1,29.99,ESE,112,9.1,9.1,70,0.00,,---,0.10,VWS V13.01,2013-05-23 17:43:00,
2013-05-23 13:45:00,86.1,75.2,29.99,ENE,68,7.6,7.6,70,0.00,,---,0.10,VWS V13.01,2013-05-23 17:45:00,
2013-05-23 13:46:00,86.1,75.2,29.99,ENE,68,7.6,7.6,70,0.00,,---,0.10,VWS V13.01,2013-05-23 17:46:00,
2013-05-23 13:47:00,86.1,75.2,29.99,ESE,112,8.2,8.2,70,0.00,,---,0.10,VWS V13.01,2013-05-23 17:47:00,
2013-05-23 13:48:00,86.1,74.8,29.99,ESE,112,9.3,9.3,69,0.00,,---,0.10,VWS V13.01,2013-05-23 17:48:00,
2013-05-23 13:50:00,86.1,74.8,29.99,SE,135,0.0,0.0,69,0.00,,---,0.10,VWS V13.01,2013-05-23 17:50:00,
2013-05-23 13:51:00,86.1,74.8,29.99,SE,135,0.0,0.0,69,0.00,,---,0.10,VWS V13.01,2013-05-23 17:51:00,
2013-05-23 13:52:00,86.3,74.9,29.99,ESE,112,1.3,1.3,69,0.00,,---,0.10,VWS V13.01,2013-05-23 17:52:00,
2013-05-23 13:53:00,86.5,75.1,29.98,NNE,22,0.0,0.0,69,0.00,,---,0.10,VWS V13.01,2013-05-23 17:53:00,
2013-05-23 13:55:00,86.7,75.3,29.98,ESE,112,5.1,5.1,69,0.00,,---,0.10,VWS V13.01,2013-05-23 17:55:00,
2013-05-23 13:56:00,86.7,75.3,29.98,ESE,112,5.1,5.1,69,0.00,,---,0.10,VWS V13.01,2013-05-23 17:56:00,
2013-05-23 13:57:00,86.9,75.5,29.98,NNE,22,0.0,0.0,69,0.00,,---,0.10,VWS V13.01,2013-05-23 17:57:00,
2013-05-23 13:58:00,86.9,75.1,29.98,East,90,0.0,0.0,68,0.00,,---,0.10,VWS V13.01,2013-05-23 17:58:00,
2013-05-23 14:00:00,87.0,75.2,29.98,East,90,12.0,12.0,68,0.00,,---,0.10,VWS V13.01,2013-05-23 18:00:00,
2013-05-23 14:01:00,87.0,75.2,29.98,East,90,12.0,12.0,68,0.00,,---,0.10,VWS V13.01,2013-05-23 18:01:00,
2013-05-23 14:02:00,87.0,75.2,29.98,East,90,9.3,9.3,68,0.00,,---,0.10,VWS V13.01,2013-05-23 18:02:00,
2013-05-23 14:03:00,87.0,74.7,29.98,ENE,68,6.4,6.4,67,0.00,,---,0.10,VWS V13.01,2013-05-23 18:03:00,
2013-05-23 14:05:00,87.2,74.9,29.98,East,90,2.9,2.9,67,0.00,,---,0.10,VWS V13.01,2013-05-23 18:05:00,
2013-05-23 14:06:00,87.2,74.9,29.98,East,90,2.9,2.9,67,0.00,,---,0.10,VWS V13.01,2013-05-23 18:06:00,
2013-05-23 14:08:00,87.4,75.1,29.98,East,90,0.6,0.6,67,0.00,,---,0.10,VWS V13.01,2013-05-23 18:08:00,
2013-05-23 14:09:00,87.4,75.1,29.98,ESE,112,13.6,13.6,67,0.00,,---,0.10,VWS V13.01,2013-05-23 18:09:00,
2013-05-23 14:10:00,87.6,75.3,29.98,NE,45,4.0,4.0,67,0.00,,---,0.10,VWS V13.01,2013-05-23 18:10:00,
2013-05-23 14:11:00,87.6,74.8,29.97,East,90,8.2,8.2,66,0.00,,---,0.10,VWS V13.01,2013-05-23 18:11:00,
2013-05-23 14:13:00,87.8,75.0,29.97,ENE,68,14.5,14.5,66,0.00,,---,0.10,VWS V13.01,2013-05-23 18:13:00,
2013-05-23 14:14:00,87.8,75.0,29.97,East,90,9.8,9.8,66,0.00,,---,0.10,VWS V13.01,2013-05-23 18:14:00,
2013-05-23 14:15:00,87.9,75.1,29.97,East,90,2.0,2.0,66,0.00,,---,0.10,VWS V13.01,2013-05-23 18:15:00,
2013-05-23 14:16:00,87.9,75.1,29.97,East,90,2.0,2.0,66,0.00,,---,0.10,VWS V13.01,2013-05-23 18:16:00,
2013-05-23 14:18:00,88.3,75.5,29.97,SSE,158,0.0,0.0,66,0.00,,---,0.10,VWS V13.01,2013-05-23 18:18:00,
2013-05-23 14:19:00,88.3,75.5,29.97,NE,45,16.5,16.5,66,0.00,,---,0.10,VWS V13.01,2013-05-23 18:19:00,
2013-05-23 14:20:00,88.3,75.1,29.97,NE,45,3.8,3.8,65,0.00,,---,0.10,VWS V13.01,2013-05-23 18:20:00,
2013-05-23 14:21:00,88.3,75.1,29.97,NE,45,3.8,3.8,65,0.00,,---,0.10,VWS V13.01,2013-05-23 18:21:00,
2013-05-23 14:23:00,88.5,75.2,29.97,East,90,9.1,9.1,65,0.00,,---,0.10,VWS V13.01,2013-05-23 18:23:00,
2013-05-23 14:24:00,88.5,75.2,29.97,East,90,6.2,6.2,65,0.00,,---,0.10,VWS V13.01,2013-05-23 18:24:00,
2013-05-23 14:25:00,88.5,75.2,29.97,ESE,112,4.4,4.4,65,0.00,,---,0.10,VWS V13.01,2013-05-23 18:25:00,
2013-05-23 14:26:00,88.5,75.2,29.97,ESE,112,4.4,4.4,65,0.00,,---,0.10,VWS V13.01,2013-05-23 18:26:00,
2013-05-23 14:28:00,88.5,75.2,29.97,NNE,22,5.1,5.1,65,0.00,,---,0.10,VWS V13.01,2013-05-23 18:28:00,
2013-05-23 14:29:00,88.5,75.2,29.96,SSE,158,6.9,6.9,65,0.00,,---,0.10,VWS V13.01,2013-05-23 18:29:00,
2013-05-23 14:30:00,88.8,75.5,29.97,NE,45,13.1,13.1,65,0.00,,---,0.10,VWS V13.01,2013-05-23 18:30:00,
2013-05-23 14:31:00,88.8,75.5,29.97,East,90,12.0,12.0,65,0.00,,---,0.10,VWS V13.01,2013-05-23 18:31:00,
2013-05-23 14:32:00,88.8,75.5,29.97,East,90,12.0,12.0,65,0.00,,---,0.10,VWS V13.01,2013-05-23 18:32:00,
2013-05-23 14:33:00,88.7,75.4,29.97,South,180,0.0,0.0,65,0.00,,---,0.10,VWS V13.01,2013-05-23 18:33:00,
2013-05-23 14:34:00,88.7,75.4,29.97,South,180,0.0,0.0,65,0.00,,---,0.10,VWS V13.01,2013-05-23 18:34:00,
2013-05-23 14:36:00,88.7,75.4,29.97,ESE,112,6.7,6.7,65,0.00,,---,0.10,VWS V13.01,2013-05-23 18:36:00,
2013-05-23 14:37:00,88.7,75.4,29.97,ENE,68,0.0,0.0,65,0.00,,---,0.10,VWS V13.01,2013-05-23 18:37:00,
2013-05-23 14:38:00,88.8,75.5,29.97,SE,135,6.4,6.4,65,0.00,,---,0.10,VWS V13.01,2013-05-23 18:38:00,
2013-05-23 14:39:00,88.8,75.5,29.97,SE,135,6.4,6.4,65,0.00,,---,0.10,VWS V13.01,2013-05-23 18:39:00,
2013-05-23 14:41:00,88.8,75.1,29.96,ENE,68,6.4,6.4,64,0.00,,---,0.10,VWS V13.01,2013-05-23 18:41:00,
2013-05-23 14:42:00,88.8,75.1,29.96,SE,135,2.4,2.4,64,0.00,,---,0.10,VWS V13.01,2013-05-23 18:42:00,
2013-05-23 14:43:00,88.8,75.1,29.96,ENE,68,3.3,3.3,64,0.00,,---,0.10,VWS V13.01,2013-05-23 18:43:00,
2013-05-23 14:44:00,88.8,75.1,29.96,ENE,68,3.3,3.3,64,0.00,,---,0.10,VWS V13.01,2013-05-23 18:44:00,
2013-05-23 14:46:00,88.8,75.1,29.97,ENE,68,7.6,7.6,64,0.00,,---,0.10,VWS V13.01,2013-05-23 18:46:00,
2013-05-23 14:47:00,88.8,75.1,29.97,ENE,68,13.6,13.6,64,0.00,,---,0.10,VWS V13.01,2013-05-23 18:47:00,
2013-05-23 14:48:00,88.7,75.0,29.97,SE,135,1.5,1.5,64,0.00,,---,0.10,VWS V13.01,2013-05-23 18:48:00,
2013-05-23 14:49:00,88.7,75.0,29.97,SE,135,1.5,1.5,64,0.00,,---,0.10,VWS V13.01,2013-05-23 18:49:00,
2013-05-23 14:51:00,88.8,75.1,29.96,ENE,68,3.5,3.5,64,0.00,,---,0.10,VWS V13.01,2013-05-23 18:51:00,
2013-05-23 14:52:00,88.8,75.1,29.96,ENE,68,3.5,3.5,64,0.00,,---,0.10,VWS V13.01,2013-05-23 18:52:00,
2013-05-23 14:53:00,88.8,75.1,29.96,South,180,3.8,3.8,64,0.00,,---,0.10,VWS V13.01,2013-05-23 18:53:00,
2013-05-23 14:54:00,89.0,75.2,29.96,NNE,22,11.4,11.4,64,0.00,,---,0.10,VWS V13.01,2013-05-23 18:54:00,
2013-05-23 14:56:00,89.2,75.4,29.97,ENE,68,5.3,6.0,64,0.00,,---,0.10,VWS V13.01,2013-05-23 18:56:00,
2013-05-23 14:57:00,89.2,75.4,29.97,ENE,68,5.3,5.3,64,0.00,,---,0.10,VWS V13.01,2013-05-23 18:57:00,
2013-05-23 14:58:00,89.2,75.9,29.97,ESE,112,0.0,0.0,65,0.00,,---,0.10,VWS V13.01,2013-05-23 18:58:00,
2013-05-23 14:59:00,89.2,75.9,29.97,NE,45,1.5,1.5,65,0.00,,---,0.10,VWS V13.01,2013-05-23 18:59:00,
2013-05-23 15:01:00,89.2,75.4,29.96,NE,45,9.1,9.1,64,0.00,,---,0.10,VWS V13.01,2013-05-23 19:01:00,
2013-05-23 15:02:00,89.2,75.4,29.96,NE,45,9.1,9.1,64,0.00,,---,0.10,VWS V13.01,2013-05-23 19:02:00,
2013-05-23 15:03:00,89.2,75.4,29.96,NNE,22,5.8,5.8,64,0.00,,---,0.10,VWS V13.01,2013-05-23 19:03:00,
2013-05-23 15:04:00,89.4,75.6,29.96,NE,45,6.4,6.4,64,0.00,,---,0.10,VWS V13.01,2013-05-23 19:04:00,
2013-05-23 15:06:00,89.4,75.6,29.96,ENE,68,0.0,0.0,64,0.00,,---,0.10,VWS V13.01,2013-05-23 19:06:00,
2013-05-23 15:07:00,89.4,75.6,29.96,ENE,68,0.0,0.0,64,0.00,,---,0.10,VWS V13.01,2013-05-23 19:07:00,
2013-05-23 15:08:00,89.4,75.2,29.97,ENE,68,2.4,2.4,63,0.00,,---,0.10,VWS V13.01,2013-05-23 19:08:00,
2013-05-23 15:09:00,89.4,75.2,29.97,East,90,2.0,2.0,63,0.00,,---,0.10,VWS V13.01,2013-05-23 19:09:00,
2013-05-23 15:11:00,89.4,75.2,29.97,ESE,112,4.9,4.9,63,0.00,,---,0.10,VWS V13.01,2013-05-23 19:11:00,
2013-05-23 15:12:00,89.4,75.2,29.97,ESE,112,4.9,4.9,63,0.00,,---,0.10,VWS V13.01,2013-05-23 19:12:00,
2013-05-23 15:13:00,89.7,75.4,29.97,ENE,68,0.0,0.0,63,0.00,,---,0.10,VWS V13.01,2013-05-23 19:13:00,
2013-05-23 15:14:00,89.9,75.6,29.97,North,0,5.5,5.5,63,0.00,,---,0.10,VWS V13.01,2013-05-23 19:14:00,
2013-05-23 15:16:00,90.1,75.8,29.96,ESE,112,1.5,1.5,63,0.00,,---,0.10,VWS V13.01,2013-05-23 19:16:00,
2013-05-23 15:17:00,90.1,75.8,29.96,ESE,112,1.5,1.5,63,0.00,,---,0.10,VWS V13.01,2013-05-23 19:17:00,
2013-05-23 15:18:00,90.1,75.8,29.97,ESE,112,7.8,7.8,63,0.00,,---,0.10,VWS V13.01,2013-05-23 19:18:00,
2013-05-23 15:19:00,90.1,75.8,29.97,ENE,68,1.5,1.5,63,0.00,,---,0.10,VWS V13.01,2013-05-23 19:19:00,
2013-05-23 15:22:00,89.7,75.4,29.97,NNE,22,6.7,6.7,63,0.00,,---,0.10,VWS V13.01,2013-05-23 19:22:00,
2013-05-23 15:23:00,89.9,75.6,29.97,East,90,9.6,9.6,63,0.00,,---,0.10,VWS V13.01,2013-05-23 19:23:00,
2013-05-23 15:24:00,89.7,75.4,29.97,ENE,68,3.3,3.3,63,0.00,,---,0.10,VWS V13.01,2013-05-23 19:24:00,
2013-05-23 15:27:00,89.9,75.6,29.97,ESE,112,8.0,8.0,63,0.00,,---,0.10,VWS V13.01,2013-05-23 19:27:00,
2013-05-23 15:28:00,90.1,75.8,29.97,ENE,68,8.7,8.7,63,0.00,,---,0.10,VWS V13.01,2013-05-23 19:28:00,
2013-05-23 15:29:00,90.1,75.8,29.97,ENE,68,2.4,2.4,63,0.00,,---,0.10,VWS V13.01,2013-05-23 19:29:00,
2013-05-23 15:32:00,90.5,76.2,29.97,East,90,9.6,9.6,63,0.00,,---,0.10,VWS V13.01,2013-05-23 19:32:00,
2013-05-23 15:33:00,90.6,76.3,29.97,ENE,68,9.8,9.8,63,0.00,,---,0.10,VWS V13.01,2013-05-23 19:33:00,
2013-05-23 15:34:00,90.6,76.3,29.97,East,90,10.2,10.2,63,0.00,,---,0.10,VWS V13.01,2013-05-23 19:34:00,
2013-05-23 15:37:00,90.8,76.5,29.97,ENE,68,18.7,18.7,63,0.00,,---,0.10,VWS V13.01,2013-05-23 19:37:00,
2013-05-23 15:38:00,90.6,76.3,29.96,East,90,6.0,6.0,63,0.00,,---,0.10,VWS V13.01,2013-05-23 19:38:00,
2013-05-23 15:39:00,90.6,76.3,29.96,East,90,6.0,6.0,63,0.00,,---,0.10,VWS V13.01,2013-05-23 19:39:00,
2013-05-23 15:40:00,90.8,76.5,29.96,ENE,68,17.2,17.2,63,0.00,,---,0.10,VWS V13.01,2013-05-23 19:40:00,
2013-05-23 15:42:00,91.0,76.7,29.97,NE,45,12.3,12.3,63,0.00,,---,0.10,VWS V13.01,2013-05-23 19:42:00,
2013-05-23 15:43:00,91.0,76.7,29.97,ENE,68,4.9,4.9,63,0.00,,---,0.10,VWS V13.01,2013-05-23 19:43:00,
2013-05-23 15:44:00,91.0,76.7,29.97,ENE,68,4.9,4.9,63,0.00,,---,0.10,VWS V13.01,2013-05-23 19:44:00,
2013-05-23 15:45:00,91.0,76.7,29.96,ENE,68,10.0,10.0,63,0.00,,---,0.10,VWS V13.01,2013-05-23 19:45:00,
2013-05-23 15:47:00,90.8,76.0,29.96,East,90,11.6,18.1,62,0.00,,---,0.10,VWS V13.01,2013-05-23 19:47:00,
2013-05-23 15:48:00,90.6,75.8,29.96,East,90,4.4,4.4,62,0.00,,---,0.10,VWS V13.01,2013-05-23 19:48:00,
2013-05-23 15:49:00,90.6,75.8,29.96,East,90,4.4,4.4,62,0.00,,---,0.10,VWS V13.01,2013-05-23 19:49:00,
2013-05-23 15:50:00,90.8,76.0,29.97,NE,45,10.9,10.9,62,0.00,,---,0.10,VWS V13.01,2013-05-23 19:50:00,
2013-05-23 15:52:00,90.8,76.0,29.97,East,90,12.5,12.5,62,0.00,,---,0.10,VWS V13.01,2013-05-23 19:52:00,
2013-05-23 15:53:00,90.8,76.0,29.97,ESE,112,10.5,10.5,62,0.00,,---,0.10,VWS V13.01,2013-05-23 19:53:00,
2013-05-23 15:54:00,90.8,76.0,29.97,ESE,112,10.5,10.5,62,0.00,,---,0.10,VWS V13.01,2013-05-23 19:54:00,
2013-05-23 15:55:00,90.6,75.8,29.97,East,90,4.0,4.0,62,0.00,,---,0.10,VWS V13.01,2013-05-23 19:55:00,
2013-05-23 15:57:00,90.5,75.7,29.97,ENE,68,12.3,12.3,62,0.00,,---,0.10,VWS V13.01,2013-05-23 19:57:00,
2013-05-23 15:58:00,90.5,75.7,29.97,ENE,68,12.3,12.3,62,0.00,,---,0.10,VWS V13.01,2013-05-23 19:58:00,
2013-05-23 15:59:00,90.3,76.0,29.97,ESE,112,11.8,11.8,63,0.00,,---,0.10,VWS V13.01,2013-05-23 19:59:00,
2013-05-23 16:00:00,90.3,76.0,29.97,ESE,112,11.8,11.8,63,0.00,,---,0.10,VWS V13.01,2013-05-23 20:00:00,
2013-05-23 16:02:00,90.1,75.8,29.97,ESE,112,8.7,8.7,63,0.00,,---,0.10,VWS V13.01,2013-05-23 20:02:00,
2013-05-23 16:03:00,90.1,75.8,29.97,ESE,112,8.7,8.7,63,0.00,,---,0.10,VWS V13.01,2013-05-23 20:03:00,
2013-05-23 16:04:00,89.9,75.6,29.96,ESE,112,10.5,10.5,63,0.00,,---,0.10,VWS V13.01,2013-05-23 20:04:00,
2013-05-23 16:05:00,89.9,75.6,29.97,NE,45,10.0,10.0,63,0.00,,---,0.10,VWS V13.01,2013-05-23 20:05:00,
2013-05-23 16:07:00,89.9,75.6,29.96,ENE,68,10.2,10.2,63,0.00,,---,0.10,VWS V13.01,2013-05-23 20:07:00,
2013-05-23 16:08:00,89.9,75.6,29.96,ENE,68,10.2,10.2,63,0.00,,---,0.10,VWS V13.01,2013-05-23 20:08:00,
2013-05-23 16:09:00,89.7,75.4,29.96,East,90,2.4,2.4,63,0.00,,---,0.10,VWS V13.01,2013-05-23 20:09:00,
2013-05-23 16:10:00,89.7,75.4,29.97,ENE,68,7.8,7.8,63,0.00,,---,0.10,VWS V13.01,2013-05-23 20:10:00,
2013-05-23 16:12:00,89.4,75.6,29.96,East,90,8.2,8.2,64,0.00,,---,0.10,VWS V13.01,2013-05-23 20:12:00,
2013-05-23 16:13:00,89.4,75.6,29.96,East,90,8.2,8.2,64,0.00,,---,0.10,VWS V13.01,2013-05-23 20:13:00,
2013-05-23 16:14:00,89.4,75.6,29.96,NNE,22,7.3,7.3,64,0.00,,---,0.10,VWS V13.01,2013-05-23 20:14:00,
2013-05-23 16:15:00,89.2,75.9,29.96,East,90,9.1,9.1,65,0.00,,---,0.10,VWS V13.01,2013-05-23 20:15:00,
2013-05-23 16:17:00,88.8,75.1,29.96,NNE,22,7.1,7.1,64,0.00,,---,0.10,VWS V13.01,2013-05-23 20:17:00,
2013-05-23 16:18:00,88.8,75.1,29.96,NNE,22,7.1,7.1,64,0.00,,---,0.10,VWS V13.01,2013-05-23 20:18:00,
2013-05-23 16:19:00,88.7,75.4,29.96,ESE,112,6.0,6.0,65,0.00,,---,0.10,VWS V13.01,2013-05-23 20:19:00,
2013-05-23 16:20:00,88.5,75.2,29.96,East,90,12.7,12.7,65,0.00,,---,0.10,VWS V13.01,2013-05-23 20:20:00,
2013-05-23 16:22:00,88.3,75.1,29.96,East,90,8.2,8.2,65,0.00,,---,0.10,VWS V13.01,2013-05-23 20:22:00,
2013-05-23 16:23:00,88.3,75.1,29.96,East,90,8.2,8.2,65,0.00,,---,0.10,VWS V13.01,2013-05-23 20:23:00,
2013-05-23 16:24:00,87.9,75.1,29.96,ESE,112,1.5,1.5,66,0.00,,---,0.10,VWS V13.01,2013-05-23 20:24:00,
2013-05-23 16:26:00,87.9,75.1,29.96,ENE,68,7.8,7.8,66,0.00,,---,0.10,VWS V13.01,2013-05-23 20:26:00,
2013-05-23 16:27:00,87.8,75.5,29.96,ESE,112,6.2,6.2,67,0.00,,---,0.10,VWS V13.01,2013-05-23 20:27:00,
2013-05-23 16:28:00,87.8,75.5,29.96,ESE,112,6.2,6.2,67,0.00,,---,0.10,VWS V13.01,2013-05-23 20:28:00,
2013-05-23 16:29:00,87.6,74.8,29.97,East,90,11.8,11.8,66,0.00,,---,0.10,VWS V13.01,2013-05-23 20:29:00,
2013-05-23 16:31:00,87.4,74.7,29.97,NE,45,4.4,4.4,66,0.00,,---,0.10,VWS V13.01,2013-05-23 20:31:00,
2013-05-23 16:32:00,87.2,74.0,29.97,ESE,112,11.4,11.4,65,0.00,,---,0.10,VWS V13.01,2013-05-23 20:32:00,
2013-05-23 16:33:00,87.2,74.0,29.97,ESE,112,11.4,11.4,65,0.00,,---,0.10,VWS V13.01,2013-05-23 20:33:00,
2013-05-23 16:34:00,87.0,73.8,29.96,East,90,11.4,11.4,65,0.00,,---,0.10,VWS V13.01,2013-05-23 20:34:00,
2013-05-23 16:36:00,87.0,73.8,29.97,ENE,68,6.7,6.7,65,0.00,,---,0.10,VWS V13.01,2013-05-23 20:36:00,
2013-05-23 16:38:00,87.0,73.8,29.97,East,90,3.5,3.5,65,0.00,,---,0.10,VWS V13.01,2013-05-23 20:38:00,
2013-05-23 16:39:00,87.0,74.3,29.96,ENE,68,7.3,7.3,66,0.00,,---,0.10,VWS V13.01,2013-05-23 20:39:00,
2013-05-23 16:41:00,86.9,74.2,29.96,SE,135,6.4,6.4,66,0.00,,---,0.10,VWS V13.01,2013-05-23 20:41:00,
2013-05-23 16:43:00,86.7,74.0,29.96,East,90,13.8,13.8,66,0.00,,---,0.10,VWS V13.01,2013-05-23 20:43:00,
2013-05-23 16:44:00,86.9,74.2,29.96,NE,45,5.1,5.1,66,0.00,,---,0.10,VWS V13.01,2013-05-23 20:44:00,
2013-05-23 16:46:00,86.7,74.0,29.96,ENE,68,6.2,6.2,66,0.00,,---,0.10,VWS V13.01,2013-05-23 20:46:00,
2013-05-23 16:48:00,86.9,74.2,29.97,ESE,112,5.1,5.1,66,0.00,,---,0.10,VWS V13.01,2013-05-23 20:48:00,
2013-05-23 16:49:00,86.9,74.2,29.97,ENE,68,6.2,6.2,66,0.00,,---,0.10,VWS V13.01,2013-05-23 20:49:00,
2013-05-23 16:50:00,86.9,74.2,29.97,ENE,68,6.2,6.2,66,0.00,,---,0.10,VWS V13.01,2013-05-23 20:50:00,
2013-05-23 16:51:00,86.9,74.2,29.97,ENE,68,5.3,5.3,66,0.00,,---,0.10,VWS V13.01,2013-05-23 20:51:00,
2013-05-23 16:53:00,86.9,74.2,29.97,East,90,6.9,6.9,66,0.00,,---,0.10,VWS V13.01,2013-05-23 20:53:00,
2013-05-23 16:54:00,87.0,74.3,29.96,East,90,12.9,12.9,66,0.00,,---,0.10,VWS V13.01,2013-05-23 20:54:00,
2013-05-23 16:55:00,87.0,74.3,29.96,East,90,12.9,12.9,66,0.00,,---,0.10,VWS V13.01,2013-05-23 20:55:00,
2013-05-23 16:56:00,87.0,74.3,29.97,East,90,13.1,13.1,66,0.00,,---,0.10,VWS V13.01,2013-05-23 20:56:00,
2013-05-23 16:58:00,87.0,74.3,29.97,ESE,112,6.0,6.0,66,0.00,,---,0.10,VWS V13.01,2013-05-23 20:58:00,
2013-05-23 16:59:00,87.2,74.5,29.97,ENE,68,8.9,8.9,66,0.00,,---,0.10,VWS V13.01,2013-05-23 20:59:00,
2013-05-23 17:00:00,87.2,74.5,29.97,ENE,68,8.9,8.9,66,0.00,,---,0.10,VWS V13.01,2013-05-23 21:00:00,
2013-05-23 17:01:00,87.2,74.5,29.97,ENE,68,4.9,4.9,66,0.00,,---,0.10,VWS V13.01,2013-05-23 21:01:00,
2013-05-23 17:03:00,87.6,74.4,29.97,ENE,68,8.7,8.7,65,0.00,,---,0.10,VWS V13.01,2013-05-23 21:03:00,
2013-05-23 17:04:00,87.9,74.7,29.96,ENE,68,4.4,4.4,65,0.00,,---,0.10,VWS V13.01,2013-05-23 21:04:00,
2013-05-23 17:05:00,87.9,74.7,29.96,ENE,68,4.4,4.4,65,0.00,,---,0.10,VWS V13.01,2013-05-23 21:05:00,
2013-05-23 17:06:00,87.8,74.6,29.97,East,90,8.0,8.0,65,0.00,,---,0.10,VWS V13.01,2013-05-23 21:06:00,
2013-05-23 17:08:00,87.9,74.7,29.96,ENE,68,7.6,7.6,65,0.00,,---,0.10,VWS V13.01,2013-05-23 21:08:00,
2013-05-23 17:09:00,88.1,74.9,29.96,ENE,68,2.9,2.9,65,0.00,,---,0.10,VWS V13.01,2013-05-23 21:09:00,
2013-05-23 17:10:00,88.1,74.9,29.96,ENE,68,2.9,2.9,65,0.00,,---,0.10,VWS V13.01,2013-05-23 21:10:00,
2013-05-23 17:11:00,88.3,75.1,29.97,NNE,22,3.1,3.1,65,0.00,,---,0.10,VWS V13.01,2013-05-23 21:11:00,
2013-05-23 17:13:00,88.3,75.1,29.96,NE,45,7.3,7.3,65,0.00,,---,0.10,VWS V13.01,2013-05-23 21:13:00,
2013-05-23 17:14:00,88.3,75.1,29.97,ENE,68,4.0,4.0,65,0.00,,---,0.10,VWS V13.01,2013-05-23 21:14:00,
2013-05-23 17:15:00,88.3,75.1,29.97,ENE,68,4.0,4.0,65,0.00,,---,0.10,VWS V13.01,2013-05-23 21:15:00,
2013-05-23 17:16:00,88.3,75.1,29.97,NE,45,9.6,9.6,65,0.00,,---,0.10,VWS V13.01,2013-05-23 21:16:00,
2013-05-23 17:18:00,88.3,75.1,29.97,ESE,112,8.2,8.2,65,0.00,,---,0.10,VWS V13.01,2013-05-23 21:18:00,
2013-05-23 17:19:00,88.3,74.6,29.97,NE,45,5.1,5.1,64,0.00,,---,0.10,VWS V13.01,2013-05-23 21:19:00,
2013-05-23 17:20:00,88.3,74.6,29.97,NE,45,5.1,5.1,64,0.00,,---,0.10,VWS V13.01,2013-05-23 21:20:00,
2013-05-23 17:21:00,88.5,74.8,29.96,SSE,158,5.1,5.1,64,0.00,,---,0.10,VWS V13.01,2013-05-23 21:21:00,
2013-05-23 17:23:00,88.5,74.8,29.97,ESE,112,4.2,4.2,64,0.00,,---,0.10,VWS V13.01,2013-05-23 21:23:00,
2013-05-23 17:24:00,88.7,75.0,29.96,East,90,4.2,4.2,64,0.00,,---,0.10,VWS V13.01,2013-05-23 21:24:00,
2013-05-23 17:25:00,88.7,75.0,29.96,East,90,4.2,4.2,64,0.00,,---,0.10,VWS V13.01,2013-05-23 21:25:00,
2013-05-23 17:26:00,88.8,75.1,29.96,ESE,112,8.9,8.9,64,0.00,,---,0.10,VWS V13.01,2013-05-23 21:26:00,
2013-05-23 17:28:00,88.8,74.6,29.96,ENE,68,8.7,8.7,63,0.00,,---,0.10,VWS V13.01,2013-05-23 21:28:00,
2013-05-23 17:30:00,88.8,74.6,29.97,NNE,22,0.8,0.8,63,0.00,,---,0.10,VWS V13.01,2013-05-23 21:30:00,
2013-05-23 17:31:00,88.8,74.6,29.97,NE,45,0.0,0.0,63,0.00,,---,0.10,VWS V13.01,2013-05-23 21:31:00,
2013-05-23 17:33:00,89.2,75.0,29.97,ESE,112,2.4,2.4,63,0.00,,---,0.10,VWS V13.01,2013-05-23 21:33:00,
2013-05-23 17:35:00,89.2,75.0,29.97,East,90,2.0,2.0,63,0.00,,---,0.10,VWS V13.01,2013-05-23 21:35:00,
2013-05-23 17:36:00,89.2,74.5,29.97,ESE,112,3.5,3.5,62,0.00,,---,0.10,VWS V13.01,2013-05-23 21:36:00,
2013-05-23 17:38:00,89.2,75.0,29.97,NE,45,4.6,4.6,63,0.00,,---,0.10,VWS V13.01,2013-05-23 21:38:00,
2013-05-23 17:40:00,89.2,74.5,29.97,ENE,68,4.6,4.6,62,0.00,,---,0.10,VWS V13.01,2013-05-23 21:40:00,
2013-05-23 17:41:00,89.2,74.5,29.97,ENE,68,6.0,6.0,62,0.00,,---,0.10,VWS V13.01,2013-05-23 21:41:00,
2013-05-23 17:43:00,88.7,74.0,29.97,ENE,68,3.8,3.8,62,0.00,,---,0.10,VWS V13.01,2013-05-23 21:43:00,
2013-05-23 17:45:00,88.7,74.0,29.97,ENE,68,8.2,8.2,62,0.00,,---,0.10,VWS V13.01,2013-05-23 21:45:00,
2013-05-23 17:46:00,88.1,73.4,29.97,ESE,112,12.0,12.0,62,0.00,,---,0.10,VWS V13.01,2013-05-23 21:46:00,
2013-05-23 17:48:00,87.6,73.0,29.97,NE,45,4.6,4.6,62,0.00,,---,0.10,VWS V13.01,2013-05-23 21:48:00,
2013-05-23 17:49:00,87.6,73.0,29.97,NE,45,4.6,4.6,62,0.00,,---,0.10,VWS V13.01,2013-05-23 21:49:00,
2013-05-23 17:50:00,87.6,73.5,29.97,ENE,68,5.3,5.3,63,0.00,,---,0.10,VWS V13.01,2013-05-23 21:50:00,
2013-05-23 17:51:00,87.0,72.9,29.97,ENE,68,0.0,0.0,63,0.00,,---,0.10,VWS V13.01,2013-05-23 21:51:00,
2013-05-23 17:53:00,87.0,72.9,29.97,ESE,112,0.0,0.0,63,0.00,,---,0.10,VWS V13.01,2013-05-23 21:53:00,
2013-05-23 17:54:00,87.0,72.9,29.97,ESE,112,0.0,0.0,63,0.00,,---,0.10,VWS V13.01,2013-05-23 21:54:00,
2013-05-23 17:55:00,86.9,72.8,29.97,SE,135,9.1,9.1,63,0.00,,---,0.10,VWS V13.01,2013-05-23 21:55:00,
2013-05-23 17:56:00,86.7,72.6,29.98,ENE,68,6.7,6.7,63,0.00,,---,0.10,VWS V13.01,2013-05-23 21:56:00,
2013-05-23 17:58:00,86.3,72.2,29.97,ENE,68,15.8,15.8,63,0.00,,---,0.10,VWS V13.01,2013-05-23 21:58:00,
2013-05-23 17:59:00,86.3,72.2,29.97,ENE,68,15.8,15.8,63,0.00,,---,0.10,VWS V13.01,2013-05-23 21:59:00,
2013-05-23 18:00:00,86.3,72.7,29.97,ESE,112,4.0,4.0,64,0.00,,---,0.10,VWS V13.01,2013-05-23 22:00:00,
2013-05-23 18:01:00,86.1,72.5,29.97,ESE,112,8.9,8.9,64,0.00,,---,0.10,VWS V13.01,2013-05-23 22:01:00,
2013-05-23 18:03:00,86.1,72.5,29.97,East,90,2.4,2.4,64,0.00,,---,0.10,VWS V13.01,2013-05-23 22:03:00,
2013-05-23 18:04:00,86.1,72.5,29.97,East,90,2.4,2.4,64,0.00,,---,0.10,VWS V13.01,2013-05-23 22:04:00,
2013-05-23 18:05:00,85.8,72.7,29.97,NE,45,5.8,5.8,65,0.00,,---,0.10,VWS V13.01,2013-05-23 22:05:00,
2013-05-23 18:06:00,85.8,72.7,29.97,East,90,16.7,16.7,65,0.00,,---,0.10,VWS V13.01,2013-05-23 22:06:00,
2013-05-23 18:08:00,85.6,72.5,29.97,SE,135,5.3,5.3,65,0.00,,---,0.10,VWS V13.01,2013-05-23 22:08:00,
2013-05-23 18:09:00,85.6,72.5,29.97,SE,135,5.3,5.3,65,0.00,,---,0.10,VWS V13.01,2013-05-23 22:09:00,
2013-05-23 18:10:00,85.6,72.5,29.97,ESE,112,2.9,2.9,65,0.00,,---,0.10,VWS V13.01,2013-05-23 22:10:00,
2013-05-23 18:11:00,85.6,72.5,29.97,ENE,68,0.0,0.0,65,0.00,,---,0.10,VWS V13.01,2013-05-23 22:11:00,
2013-05-23 18:14:00,85.4,72.3,29.98,NNE,22,2.4,2.4,65,0.00,,---,0.10,VWS V13.01,2013-05-23 22:14:00,
2013-05-23 18:15:00,85.2,72.1,29.98,SE,135,6.9,6.9,65,0.00,,---,0.10,VWS V13.01,2013-05-23 22:15:00,
2013-05-23 18:16:00,85.2,72.1,29.98,SSE,158,0.0,0.0,65,0.00,,---,0.10,VWS V13.01,2013-05-23 22:16:00,
2013-05-23 18:19:00,85.1,72.0,29.98,SE,135,0.0,0.0,65,0.00,,---,0.10,VWS V13.01,2013-05-23 22:19:00,
2013-05-23 18:20:00,84.9,72.3,29.98,ENE,68,6.0,6.0,66,0.00,,---,0.10,VWS V13.01,2013-05-23 22:20:00,
2013-05-23 18:21:00,84.9,72.3,29.97,ENE,68,8.5,8.5,66,0.00,,---,0.10,VWS V13.01,2013-05-23 22:21:00,
2013-05-23 18:24:00,84.9,72.3,29.97,ENE,68,3.5,3.5,66,0.00,,---,0.10,VWS V13.01,2013-05-23 22:24:00,
2013-05-23 18:25:00,84.7,72.1,29.97,ENE,68,7.1,7.1,66,0.00,,---,0.10,VWS V13.01,2013-05-23 22:25:00,
2013-05-23 18:26:00,84.7,72.5,29.97,ENE,68,10.5,10.5,67,0.00,,---,0.10,VWS V13.01,2013-05-23 22:26:00,
2013-05-23 18:29:00,84.7,73.0,29.97,East,90,3.8,3.8,68,0.00,,---,0.10,VWS V13.01,2013-05-23 22:29:00,
2013-05-23 18:30:00,84.5,72.8,29.98,SE,135,4.6,4.6,68,0.00,,---,0.10,VWS V13.01,2013-05-23 22:30:00,
2013-05-23 18:32:00,84.5,72.8,29.97,ENE,68,5.3,5.3,68,0.00,,---,0.10,VWS V13.01,2013-05-23 22:32:00,
2013-05-23 18:34:00,84.3,73.0,29.98,ESE,112,10.5,10.5,69,0.00,,---,0.10,VWS V13.01,2013-05-23 22:34:00,
2013-05-23 18:35:00,84.3,73.0,29.98,SSE,158,4.6,4.6,69,0.00,,---,0.10,VWS V13.01,2013-05-23 22:35:00,
2013-05-23 18:37:00,84.3,73.0,29.98,East,90,4.4,4.4,69,0.00,,---,0.10,VWS V13.01,2013-05-23 22:37:00,
2013-05-23 18:39:00,84.0,73.2,29.98,ENE,68,4.6,6.2,70,0.00,,---,0.10,VWS V13.01,2013-05-23 22:39:00,
2013-05-23 18:40:00,84.0,73.2,29.98,ESE,112,6.2,6.2,70,0.00,,---,0.10,VWS V13.01,2013-05-23 22:40:00,
2013-05-23 18:42:00,84.0,73.2,29.98,ENE,68,3.3,3.3,70,0.00,,---,0.10,VWS V13.01,2013-05-23 22:42:00,
2013-05-23 18:44:00,83.8,73.0,29.98,ESE,112,1.5,1.5,70,0.00,,---,0.10,VWS V13.01,2013-05-23 22:44:00,
2013-05-23 18:45:00,83.8,73.0,29.98,NW,315,0.0,0.0,70,0.00,,---,0.10,VWS V13.01,2013-05-23 22:45:00,
2013-05-23 18:46:00,83.8,73.0,29.98,NW,315,0.0,0.0,70,0.00,,---,0.10,VWS V13.01,2013-05-23 22:46:00,
2013-05-23 18:47:00,83.8,73.0,29.98,SE,135,3.5,3.5,70,0.00,,---,0.10,VWS V13.01,2013-05-23 22:47:00,
2013-05-23 18:49:00,83.6,72.4,29.98,SSE,158,5.3,5.3,69,0.00,,---,0.10,VWS V13.01,2013-05-23 22:49:00,
2013-05-23 18:50:00,83.6,72.4,29.98,SE,135,7.8,7.8,69,0.00,,---,0.10,VWS V13.01,2013-05-23 22:50:00,
2013-05-23 18:51:00,83.6,72.4,29.98,SE,135,7.8,7.8,69,0.00,,---,0.10,VWS V13.01,2013-05-23 22:51:00,
2013-05-23 18:52:00,83.4,72.2,29.98,ENE,68,3.8,3.8,69,0.00,,---,0.10,VWS V13.01,2013-05-23 22:52:00,
2013-05-23 18:54:00,83.4,72.6,29.98,NE,45,0.0,0.0,70,0.00,,---,0.10,VWS V13.01,2013-05-23 22:54:00,
2013-05-23 18:55:00,83.4,72.6,29.98,NE,45,0.0,0.0,70,0.00,,---,0.10,VWS V13.01,2013-05-23 22:55:00,
2013-05-23 18:56:00,83.4,72.6,29.98,East,90,2.9,2.9,70,0.00,,---,0.10,VWS V13.01,2013-05-23 22:56:00,
2013-05-23 18:57:00,83.4,72.6,29.99,ESE,112,6.7,6.7,70,0.00,,---,0.10,VWS V13.01,2013-05-23 22:57:00,
2013-05-23 19:00:00,83.4,72.6,29.98,East,90,4.9,4.9,70,0.00,,---,0.10,VWS V13.01,2013-05-23 23:00:00,
2013-05-23 19:01:00,83.3,72.5,29.98,ESE,112,0.6,0.6,70,0.00,,---,0.10,VWS V13.01,2013-05-23 23:01:00,
2013-05-23 19:02:00,83.3,72.5,29.98,East,90,8.2,8.2,70,0.00,,---,0.10,VWS V13.01,2013-05-23 23:02:00,
2013-05-23 19:05:00,83.1,72.3,29.99,East,90,4.0,4.0,70,0.00,,---,0.10,VWS V13.01,2013-05-23 23:05:00,
2013-05-23 19:06:00,83.1,72.7,29.99,NE,45,5.1,5.1,71,0.00,,---,0.10,VWS V13.01,2013-05-23 23:06:00,
2013-05-23 19:07:00,83.1,72.7,29.99,South,180,2.6,2.6,71,0.00,,---,0.10,VWS V13.01,2013-05-23 23:07:00,
2013-05-23 19:10:00,82.9,72.5,29.98,ENE,68,6.7,6.7,71,0.00,,---,0.10,VWS V13.01,2013-05-23 23:10:00,
2013-05-23 19:11:00,82.9,72.5,29.98,East,90,1.3,1.3,71,0.00,,---,0.10,VWS V13.01,2013-05-23 23:11:00,
2013-05-23 19:12:00,82.9,72.1,29.99,ESE,112,4.6,4.6,70,0.00,,---,0.10,VWS V13.01,2013-05-23 23:12:00,
2013-05-23 19:15:00,82.7,72.3,29.98,East,90,2.2,2.2,71,0.00,,---,0.10,VWS V13.01,2013-05-23 23:15:00,
2013-05-23 19:16:00,82.7,71.9,29.98,East,90,0.0,0.0,70,0.00,,---,0.10,VWS V13.01,2013-05-23 23:16:00,
2013-05-23 19:17:00,82.7,72.3,29.99,East,90,5.5,5.5,71,0.00,,---,0.10,VWS V13.01,2013-05-23 23:17:00,
2013-05-23 19:20:00,82.5,72.2,29.98,East,90,4.9,4.9,71,0.00,,---,0.10,VWS V13.01,2013-05-23 23:20:00,
2013-05-23 19:21:00,82.5,72.2,29.98,ESE,112,7.3,7.3,71,0.00,,---,0.10,VWS V13.01,2013-05-23 23:21:00,
2013-05-23 19:22:00,82.5,72.2,29.98,ENE,68,7.3,7.3,71,0.00,,---,0.10,VWS V13.01,2013-05-23 23:22:00,
2013-05-23 19:25:00,82.5,72.2,29.98,NE,45,5.3,5.3,71,0.00,,---,0.10,VWS V13.01,2013-05-23 23:25:00,
2013-05-23 19:26:00,82.5,72.2,29.99,NE,45,11.1,11.1,71,0.00,,---,0.10,VWS V13.01,2013-05-23 23:26:00,
2013-05-23 19:27:00,82.5,72.2,29.99,ESE,112,6.4,6.4,71,0.00,,---,0.10,VWS V13.01,2013-05-23 23:27:00,
2013-05-23 19:30:00,82.5,72.2,29.98,ENE,68,3.5,3.5,71,0.00,,---,0.10,VWS V13.01,2013-05-23 23:30:00,
2013-05-23 19:31:00,82.5,72.2,29.98,North,0,2.0,2.0,71,0.00,,---,0.10,VWS V13.01,2013-05-23 23:31:00,
2013-05-23 19:32:00,82.5,72.2,29.99,ESE,112,7.3,7.3,71,0.00,,---,0.10,VWS V13.01,2013-05-23 23:32:00,
2013-05-23 19:35:00,82.5,72.2,29.99,East,90,0.0,0.0,71,0.00,,---,0.10,VWS V13.01,2013-05-23 23:35:00,
2013-05-23 19:36:00,82.5,72.2,29.99,ENE,68,3.8,3.8,71,0.00,,---,0.10,VWS V13.01,2013-05-23 23:36:00,
2013-05-23 19:37:00,82.5,72.2,29.99,ENE,68,6.9,6.9,71,0.00,,---,0.10,VWS V13.01,2013-05-23 23:37:00,
2013-05-23 19:40:00,82.4,72.1,29.99,East,90,0.0,0.0,71,0.00,,---,0.10,VWS V13.01,2013-05-23 23:40:00,
2013-05-23 19:41:00,82.4,72.1,29.99,ENE,68,10.2,10.2,71,0.00,,---,0.10,VWS V13.01,2013-05-23 23:41:00,
2013-05-23 19:42:00,82.4,72.1,29.99,NNE,22,5.1,5.1,71,0.00,,---,0.10,VWS V13.01,2013-05-23 23:42:00,
2013-05-23 19:45:00,82.5,72.6,29.99,ESE,112,5.3,5.3,72,0.00,,---,0.10,VWS V13.01,2013-05-23 23:45:00,
2013-05-23 19:46:00,82.4,72.5,29.99,NE,45,5.5,5.5,72,0.00,,---,0.10,VWS V13.01,2013-05-23 23:46:00,
2013-05-23 19:47:00,82.4,72.5,29.99,NE,45,5.5,5.5,72,0.00,,---,0.10,VWS V13.01,2013-05-23 23:47:00,
2013-05-23 19:50:00,82.2,72.3,29.99,ENE,68,11.8,11.8,72,0.00,,---,0.10,VWS V13.01,2013-05-23 23:50:00,
2013-05-23 19:51:00,82.2,72.3,29.99,East,90,10.2,10.2,72,0.00,,---,0.10,VWS V13.01,2013-05-23 23:51:00,
2013-05-23 19:52:00,82.2,72.3,29.99,East,90,10.2,10.2,72,0.00,,---,0.10,VWS V13.01,2013-05-23 23:52:00,
2013-05-23 19:53:00,82.2,72.3,29.99,SE,135,3.8,3.8,72,0.00,,---,0.10,VWS V13.01,2013-05-23 23:53:00,
2013-05-23 19:55:00,82.2,72.3,29.99,ENE,68,8.7,8.7,72,0.00,,---,0.10,VWS V13.01,2013-05-23 23:55:00,
2013-05-23 19:56:00,82.2,72.3,29.99,East,90,1.5,1.5,72,0.00,,---,0.10,VWS V13.01,2013-05-23 23:56:00,
2013-05-23 19:57:00,82.2,72.3,29.99,East,90,1.5,1.5,72,0.00,,---,0.10,VWS V13.01,2013-05-23 23:57:00,
2013-05-23 19:58:00,82.2,72.3,30.00,ENE,68,4.9,4.9,72,0.00,,---,0.10,VWS V13.01,2013-05-23 23:58:00,
2013-05-23 20:00:00,82.2,72.7,29.99,East,90,3.1,3.1,73,0.00,,---,0.10,VWS V13.01,2013-05-24 00:00:00,
2013-05-23 20:02:00,82.0,72.5,29.99,South,180,1.1,1.1,73,0.00,,---,0.10,VWS V13.01,2013-05-24 00:02:00,
2013-05-23 20:03:00,82.2,72.7,29.99,ESE,112,3.1,3.1,73,0.00,,---,0.10,VWS V13.01,2013-05-24 00:03:00,
2013-05-23 20:05:00,82.0,72.5,29.99,SE,135,2.6,2.6,73,0.00,,---,0.10,VWS V13.01,2013-05-24 00:05:00,
2013-05-23 20:07:00,82.0,72.5,29.99,ESE,112,7.1,7.1,73,0.00,,---,0.10,VWS V13.01,2013-05-24 00:07:00,
2013-05-23 20:08:00,82.0,72.5,29.99,East,90,0.8,0.8,73,0.00,,---,0.10,VWS V13.01,2013-05-24 00:08:00,
2013-05-23 20:10:00,82.0,72.5,29.99,ENE,68,7.6,7.6,73,0.00,,---,0.10,VWS V13.01,2013-05-24 00:10:00,
2013-05-23 20:12:00,82.0,72.9,29.99,NE,45,6.9,6.9,74,0.00,,---,0.10,VWS V13.01,2013-05-24 00:12:00,
2013-05-23 20:13:00,82.0,72.9,29.99,East,90,8.5,8.5,74,0.00,,---,0.10,VWS V13.01,2013-05-24 00:13:00,
2013-05-23 20:15:00,82.0,72.9,30.00,East,90,2.2,2.2,74,0.00,,---,0.10,VWS V13.01,2013-05-24 00:15:00,
2013-05-23 20:17:00,82.0,72.9,30.00,NE,45,1.3,2.4,74,0.00,,---,0.10,VWS V13.01,2013-05-24 00:17:00,
2013-05-23 20:18:00,82.0,72.9,30.00,East,90,8.2,8.2,74,0.00,,---,0.10,VWS V13.01,2013-05-24 00:18:00,
2013-05-23 20:20:00,82.0,72.9,30.00,East,90,8.5,8.5,74,0.00,,---,0.10,VWS V13.01,2013-05-24 00:20:00,
2013-05-23 20:22:00,81.8,72.7,30.00,ENE,68,0.6,0.6,74,0.00,,---,0.10,VWS V13.01,2013-05-24 00:22:00,
2013-05-23 20:23:00,81.8,72.7,30.00,NE,45,0.0,0.0,74,0.00,,---,0.10,VWS V13.01,2013-05-24 00:23:00,
2013-05-23 20:25:00,81.8,72.7,30.00,ESE,112,2.9,2.9,74,0.00,,---,0.10,VWS V13.01,2013-05-24 00:25:00,
2013-05-23 20:27:00,81.6,72.5,30.00,ENE,68,4.6,4.6,74,0.00,,---,0.10,VWS V13.01,2013-05-24 00:27:00,
2013-05-23 20:28:00,81.6,72.5,30.00,East,90,10.5,10.5,74,0.00,,---,0.10,VWS V13.01,2013-05-24 00:28:00,
2013-05-23 20:31:00,81.6,72.5,30.00,NE,45,2.9,2.9,74,0.00,,---,0.10,VWS V13.01,2013-05-24 00:31:00,
2013-05-23 20:32:00,81.6,72.5,30.00,ESE,112,9.3,9.3,74,0.00,,---,0.10,VWS V13.01,2013-05-24 00:32:00,
2013-05-23 20:33:00,81.6,72.5,30.00,ENE,68,4.2,4.2,74,0.00,,---,0.10,VWS V13.01,2013-05-24 00:33:00,
2013-05-23 20:36:00,81.6,72.5,30.00,North,0,0.0,0.0,74,0.00,,---,0.10,VWS V13.01,2013-05-24 00:36:00,
2013-05-23 20:37:00,81.6,72.5,30.01,ENE,68,5.1,5.1,74,0.00,,---,0.10,VWS V13.01,2013-05-24 00:37:00,
2013-05-23 20:39:00,81.6,72.5,30.01,NE,45,10.7,10.7,74,0.00,,---,0.10,VWS V13.01,2013-05-24 00:39:00,
2013-05-23 20:41:00,81.6,72.5,30.01,East,90,10.2,10.2,74,0.00,,---,0.10,VWS V13.01,2013-05-24 00:41:00,
2013-05-23 20:42:00,81.6,72.5,30.01,ESE,112,8.5,8.5,74,0.00,,---,0.10,VWS V13.01,2013-05-24 00:42:00,
2013-05-23 20:44:00,81.6,72.5,30.01,NE,45,4.6,4.6,74,0.00,,---,0.10,VWS V13.01,2013-05-24 00:44:00,
2013-05-23 20:46:00,81.6,72.5,30.01,ENE,68,7.1,7.1,74,0.00,,---,0.10,VWS V13.01,2013-05-24 00:46:00,
2013-05-23 20:47:00,81.6,72.5,30.01,NE,45,6.7,6.7,74,0.00,,---,0.10,VWS V13.01,2013-05-24 00:47:00,
2013-05-23 20:48:00,81.6,72.5,30.01,NE,45,6.7,6.7,74,0.00,,---,0.10,VWS V13.01,2013-05-24 00:48:00,
2013-05-23 20:49:00,81.6,72.5,30.00,ENE,68,2.0,2.0,74,0.00,,---,0.10,VWS V13.01,2013-05-24 00:49:00,
2013-05-23 20:51:00,81.5,72.8,30.01,ENE,68,1.3,1.3,75,0.00,,---,0.10,VWS V13.01,2013-05-24 00:51:00,
2013-05-23 20:52:00,81.5,72.8,30.01,NE,45,5.8,5.8,75,0.00,,---,0.10,VWS V13.01,2013-05-24 00:52:00,
2013-05-23 20:53:00,81.5,72.8,30.01,NE,45,5.8,5.8,75,0.00,,---,0.10,VWS V13.01,2013-05-24 00:53:00,
2013-05-23 20:54:00,81.5,72.8,30.01,East,90,9.6,9.6,75,0.00,,---,0.10,VWS V13.01,2013-05-24 00:54:00,
2013-05-23 20:56:00,81.5,72.8,30.02,East,90,13.6,13.6,75,0.00,,---,0.10,VWS V13.01,2013-05-24 00:56:00,
2013-05-23 20:58:00,81.5,72.8,30.02,East,90,4.6,4.6,75,0.00,,---,0.10,VWS V13.01,2013-05-24 00:58:00,
2013-05-23 20:59:00,81.5,72.8,30.01,East,90,1.5,1.5,75,0.00,,---,0.10,VWS V13.01,2013-05-24 00:59:00,
2013-05-23 21:01:00,81.3,72.6,30.01,ESE,112,4.9,4.9,75,0.00,,---,0.10,VWS V13.01,2013-05-24 01:01:00,
2013-05-23 21:03:00,81.3,72.6,30.01,ENE,68,0.6,0.6,75,0.00,,---,0.10,VWS V13.01,2013-05-24 01:03:00,
2013-05-23 21:04:00,81.3,72.6,30.01,ENE,68,6.7,6.7,75,0.00,,---,0.10,VWS V13.01,2013-05-24 01:04:00,
2013-05-23 21:06:00,81.3,72.6,30.01,ENE,68,10.0,10.0,75,0.00,,---,0.10,VWS V13.01,2013-05-24 01:06:00,
2013-05-23 21:08:00,81.3,72.6,30.01,ENE,68,2.4,2.4,75,0.00,,---,0.10,VWS V13.01,2013-05-24 01:08:00,
2013-05-23 21:09:00,81.3,72.6,30.01,ESE,112,6.2,6.2,75,0.00,,---,0.10,VWS V13.01,2013-05-24 01:09:00,
2013-05-23 21:11:00,81.3,72.6,30.01,East,90,1.5,1.5,75,0.00,,---,0.10,VWS V13.01,2013-05-24 01:11:00,
2013-05-23 21:12:00,81.3,72.6,30.01,ENE,68,11.6,11.6,75,0.00,,---,0.10,VWS V13.01,2013-05-24 01:12:00,
2013-05-23 21:13:00,81.3,72.6,30.01,ENE,68,11.6,11.6,75,0.00,,---,0.10,VWS V13.01,2013-05-24 01:13:00,
2013-05-23 21:14:00,81.3,72.6,30.02,ENE,68,4.4,4.4,75,0.00,,---,0.10,VWS V13.01,2013-05-24 01:14:00,
2013-05-23 21:16:00,81.3,72.6,30.02,ENE,68,9.6,9.6,75,0.00,,---,0.10,VWS V13.01,2013-05-24 01:16:00,
2013-05-23 21:17:00,81.3,72.6,30.02,ENE,68,2.4,2.4,75,0.00,,---,0.10,VWS V13.01,2013-05-24 01:17:00,
2013-05-23 21:18:00,81.3,72.6,30.02,ENE,68,2.4,2.4,75,0.00,,---,0.10,VWS V13.01,2013-05-24 01:18:00,
2013-05-23 21:19:00,81.3,72.6,30.01,ESE,112,5.3,5.3,75,0.00,,---,0.10,VWS V13.01,2013-05-24 01:19:00,
2013-05-23 21:21:00,81.1,72.4,30.01,East,90,5.3,5.3,75,0.00,,---,0.10,VWS V13.01,2013-05-24 01:21:00,
2013-05-23 21:22:00,81.1,72.4,30.01,ENE,68,2.0,2.0,75,0.00,,---,0.10,VWS V13.01,2013-05-24 01:22:00,
2013-05-23 21:23:00,81.1,72.4,30.01,ENE,68,2.0,2.0,75,0.00,,---,0.10,VWS V13.01,2013-05-24 01:23:00,
2013-05-23 21:24:00,81.1,72.4,30.01,SSE,158,6.9,6.9,75,0.00,,---,0.10,VWS V13.01,2013-05-24 01:24:00,
2013-05-23 21:26:00,81.1,72.4,30.01,ESE,112,4.2,4.2,75,0.00,,---,0.10,VWS V13.01,2013-05-24 01:26:00,
2013-05-23 21:27:00,81.1,72.4,30.01,ENE,68,4.0,4.0,75,0.00,,---,0.10,VWS V13.01,2013-05-24 01:27:00,
2013-05-23 21:28:00,81.1,72.4,30.01,ENE,68,4.0,4.0,75,0.00,,---,0.10,VWS V13.01,2013-05-24 01:28:00,
2013-05-23 21:29:00,81.1,72.8,30.02,East,90,6.7,6.7,76,0.00,,---,0.10,VWS V13.01,2013-05-24 01:29:00,
2013-05-23 21:31:00,81.1,72.8,30.01,ESE,112,0.0,0.0,76,0.00,,---,0.10,VWS V13.01,2013-05-24 01:31:00,
2013-05-23 21:32:00,81.1,72.8,30.02,SSE,158,2.2,2.2,76,0.00,,---,0.10,VWS V13.01,2013-05-24 01:32:00,
2013-05-23 21:33:00,81.1,72.8,30.02,NE,45,4.6,4.6,76,0.00,,---,0.10,VWS V13.01,2013-05-24 01:33:00,
2013-05-23 21:34:00,81.1,72.8,30.02,SE,135,0.0,0.0,76,0.00,,---,0.10,VWS V13.01,2013-05-24 01:34:00,
2013-05-23 21:36:00,81.1,72.8,30.02,ENE,68,4.6,4.6,76,0.00,,---,0.10,VWS V13.01,2013-05-24 01:36:00,
2013-05-23 21:37:00,81.1,72.8,30.02,NE,45,10.5,10.5,76,0.00,,---,0.10,VWS V13.01,2013-05-24 01:37:00,
2013-05-23 21:38:00,81.1,72.8,30.02,ENE,68,2.9,10.5,76,0.00,,---,0.10,VWS V13.01,2013-05-24 01:38:00,
2013-05-23 21:39:00,81.1,72.8,30.02,SE,135,4.0,4.0,76,0.00,,---,0.10,VWS V13.01,2013-05-24 01:39:00,
2013-05-23 21:41:00,81.1,72.4,30.02,ESE,112,6.2,6.2,75,0.00,,---,0.10,VWS V13.01,2013-05-24 01:41:00,
2013-05-23 21:42:00,81.1,72.4,30.02,ESE,112,5.1,5.1,75,0.00,,---,0.10,VWS V13.01,2013-05-24 01:42:00,
2013-05-23 21:43:00,81.1,72.4,30.02,ENE,68,9.6,9.6,75,0.00,,---,0.10,VWS V13.01,2013-05-24 01:43:00,
2013-05-23 21:45:00,81.1,72.4,30.02,ENE,68,8.9,8.9,75,0.00,,---,0.10,VWS V13.01,2013-05-24 01:45:00,
2013-05-23 21:47:00,81.1,72.4,30.02,ESE,112,3.1,3.1,75,0.00,,---,0.10,VWS V13.01,2013-05-24 01:47:00,
2013-05-23 21:48:00,81.1,72.4,30.03,SE,135,7.1,7.1,75,0.00,,---,0.10,VWS V13.01,2013-05-24 01:48:00,
2013-05-23 21:50:00,80.9,72.2,30.03,ENE,68,0.0,0.0,75,0.00,,---,0.10,VWS V13.01,2013-05-24 01:50:00,
2013-05-23 21:52:00,80.9,72.2,30.02,East,90,5.5,5.5,75,0.00,,---,0.10,VWS V13.01,2013-05-24 01:52:00,
2013-05-23 21:53:00,81.1,72.4,30.02,East,90,4.0,4.0,75,0.00,,---,0.10,VWS V13.01,2013-05-24 01:53:00,
2013-05-23 21:54:00,80.9,72.2,30.02,ESE,112,6.2,6.2,75,0.00,,---,0.10,VWS V13.01,2013-05-24 01:54:00,
2013-05-23 21:55:00,81.1,72.4,30.02,East,90,4.2,4.2,75,0.00,,---,0.10,VWS V13.01,2013-05-24 01:55:00,
2013-05-23 21:57:00,80.9,72.2,30.02,ESE,112,5.3,5.3,75,0.00,,---,0.10,VWS V13.01,2013-05-24 01:57:00,
2013-05-23 21:58:00,80.9,72.2,30.03,ENE,68,7.6,7.6,75,0.00,,---,0.10,VWS V13.01,2013-05-24 01:58:00,
2013-05-23 21:59:00,81.1,72.4,30.03,NE,45,9.3,9.3,75,0.00,,---,0.10,VWS V13.01,2013-05-24 01:59:00,
2013-05-23 22:00:00,81.1,72.4,30.03,ENE,68,15.6,15.6,75,0.00,,---,0.10,VWS V13.01,2013-05-24 02:00:00,
2013-05-23 22:02:00,81.1,72.4,30.02,ESE,112,7.3,7.3,75,0.00,,---,0.10,VWS V13.01,2013-05-24 02:02:00,
2013-05-23 22:03:00,81.1,72.4,30.02,ESE,112,7.3,7.3,75,0.00,,---,0.10,VWS V13.01,2013-05-24 02:03:00,
2013-05-23 22:04:00,81.1,72.4,30.02,NE,45,0.0,7.1,75,0.00,,---,0.10,VWS V13.01,2013-05-24 02:04:00,
2013-05-23 22:05:00,81.1,72.4,30.02,ESE,112,10.5,10.5,75,0.00,,---,0.10,VWS V13.01,2013-05-24 02:05:00,
2013-05-23 22:07:00,80.9,72.2,30.02,ESE,112,2.0,2.0,75,0.00,,---,0.10,VWS V13.01,2013-05-24 02:07:00,
2013-05-23 22:08:00,80.9,72.2,30.02,ESE,112,2.0,2.0,75,0.00,,---,0.10,VWS V13.01,2013-05-24 02:08:00,
2013-05-23 22:09:00,80.9,72.6,30.02,ESE,112,9.6,9.6,76,0.00,,---,0.10,VWS V13.01,2013-05-24 02:09:00,
2013-05-23 22:10:00,80.9,72.6,30.02,NE,45,1.5,1.5,76,0.00,,---,0.10,VWS V13.01,2013-05-24 02:10:00,
2013-05-23 22:13:00,80.9,72.6,30.03,ESE,112,11.6,11.6,76,0.00,,---,0.10,VWS V13.01,2013-05-24 02:13:00,
2013-05-23 22:14:00,80.9,72.6,30.03,ENE,68,7.3,7.3,76,0.00,,---,0.10,VWS V13.01,2013-05-24 02:14:00,
2013-05-23 22:15:00,80.9,72.6,30.03,NE,45,9.1,9.1,76,0.00,,---,0.10,VWS V13.01,2013-05-24 02:15:00,
2013-05-23 22:18:00,80.9,72.6,30.03,SE,135,4.9,4.9,76,0.00,,---,0.10,VWS V13.01,2013-05-24 02:18:00,
2013-05-23 22:19:00,80.9,72.6,30.03,SE,135,5.3,5.3,76,0.00,,---,0.10,VWS V13.01,2013-05-24 02:19:00,
2013-05-23 22:20:00,80.9,72.6,30.03,SE,135,3.1,3.1,76,0.00,,---,0.10,VWS V13.01,2013-05-24 02:20:00,
2013-05-23 22:23:00,80.7,72.4,30.03,ENE,68,10.2,10.2,76,0.00,,---,0.10,VWS V13.01,2013-05-24 02:23:00,
2013-05-23 22:24:00,80.7,72.4,30.03,ENE,68,2.2,2.2,76,0.00,,---,0.10,VWS V13.01,2013-05-24 02:24:00,
2013-05-23 22:25:00,80.7,72.4,30.03,SE,135,2.9,2.9,76,0.00,,---,0.10,VWS V13.01,2013-05-24 02:25:00,
2013-05-23 22:28:00,80.7,72.4,30.03,NE,45,7.1,7.1,76,0.00,,---,0.10,VWS V13.01,2013-05-24 02:28:00,
2013-05-23 22:29:00,80.7,72.4,30.03,ESE,112,6.9,6.9,76,0.00,,---,0.10,VWS V13.01,2013-05-24 02:29:00,
2013-05-23 22:30:00,80.7,72.4,30.03,East,90,2.4,2.4,76,0.00,,---,0.10,VWS V13.01,2013-05-24 02:30:00,
2013-05-23 22:33:00,80.7,72.4,30.03,ENE,68,5.3,5.3,76,0.00,,---,0.10,VWS V13.01,2013-05-24 02:33:00,
2013-05-23 22:34:00,80.7,72.4,30.03,ESE,112,4.0,4.0,76,0.00,,---,0.10,VWS V13.01,2013-05-24 02:34:00,
2013-05-23 22:35:00,80.7,72.4,30.03,ENE,68,3.1,3.1,76,0.00,,---,0.10,VWS V13.01,2013-05-24 02:35:00,
2013-05-23 22:38:00,80.7,72.8,30.03,ENE,68,6.9,6.9,77,0.00,,---,0.10,VWS V13.01,2013-05-24 02:38:00,
2013-05-23 22:39:00,80.7,72.8,30.03,NE,45,1.7,1.7,77,0.00,,---,0.10,VWS V13.01,2013-05-24 02:39:00,
2013-05-23 22:41:00,80.7,72.8,30.03,ENE,68,14.7,14.7,77,0.00,,---,0.10,VWS V13.01,2013-05-24 02:41:00,
2013-05-23 22:43:00,80.7,72.8,30.03,East,90,12.3,12.3,77,0.00,,---,0.10,VWS V13.01,2013-05-24 02:43:00,
2013-05-23 22:44:00,80.7,72.8,30.03,East,90,5.1,5.1,77,0.00,,---,0.10,VWS V13.01,2013-05-24 02:44:00,
2013-05-23 22:45:00,80.7,72.8,30.03,East,90,5.1,5.1,77,0.00,,---,0.10,VWS V13.01,2013-05-24 02:45:00,
2013-05-23 22:46:00,80.7,72.8,30.03,ENE,68,8.2,8.2,77,0.00,,---,0.10,VWS V13.01,2013-05-24 02:46:00,
2013-05-23 22:48:00,80.7,72.8,30.03,ENE,68,5.3,5.3,77,0.00,,---,0.10,VWS V13.01,2013-05-24 02:48:00,
2013-05-23 22:49:00,80.7,72.8,30.03,NE,45,7.3,7.3,77,0.00,,---,0.10,VWS V13.01,2013-05-24 02:49:00,
2013-05-23 22:50:00,80.7,72.8,30.03,NE,45,7.3,7.3,77,0.00,,---,0.10,VWS V13.01,2013-05-24 02:50:00,
2013-05-23 22:51:00,80.7,72.8,30.03,ENE,68,10.7,10.7,77,0.00,,---,0.10,VWS V13.01,2013-05-24 02:51:00,
2013-05-23 22:53:00,80.7,72.8,30.03,ESE,112,8.2,8.2,77,0.00,,---,0.10,VWS V13.01,2013-05-24 02:53:00,
2013-05-23 22:55:00,80.7,72.8,30.03,ENE,68,3.1,3.1,77,0.00,,---,0.10,VWS V13.01,2013-05-24 02:55:00,
2013-05-23 22:56:00,80.6,72.7,30.03,SE,135,2.2,2.2,77,0.00,,---,0.10,VWS V13.01,2013-05-24 02:56:00,
2013-05-23 22:58:00,80.7,72.8,30.03,East,90,0.0,0.0,77,0.00,,---,0.10,VWS V13.01,2013-05-24 02:58:00,
2013-05-23 23:00:00,80.7,72.8,30.03,SSW,202,0.0,9.6,77,0.00,,---,0.10,VWS V13.01,2013-05-24 03:00:00,
2013-05-23 23:01:00,80.7,72.8,30.03,SSW,202,0.0,0.0,77,0.00,,---,0.10,VWS V13.01,2013-05-24 03:01:00,
2013-05-23 23:03:00,80.7,72.8,30.03,ESE,112,8.5,8.5,77,0.00,,---,0.10,VWS V13.01,2013-05-24 03:03:00,
2013-05-23 23:05:00,80.7,72.8,30.03,SE,135,2.4,2.4,77,0.00,,---,0.10,VWS V13.01,2013-05-24 03:05:00,
2013-05-23 23:06:00,80.7,72.8,30.03,SE,135,2.4,2.4,77,0.00,,---,0.10,VWS V13.01,2013-05-24 03:06:00,
2013-05-23 23:08:00,80.7,72.8,30.03,ENE,68,4.6,4.6,77,0.00,,---,0.10,VWS V13.01,2013-05-24 03:08:00,
2013-05-23 23:10:00,80.7,72.8,30.02,ESE,112,4.4,4.4,77,0.00,,---,0.10,VWS V13.01,2013-05-24 03:10:00,
2013-05-23 23:11:00,80.7,72.8,30.02,ESE,112,4.4,4.4,77,0.00,,---,0.10,VWS V13.01,2013-05-24 03:11:00,
2013-05-23 23:13:00,80.6,72.7,30.03,ENE,68,10.2,10.2,77,0.00,,---,0.10,VWS V13.01,2013-05-24 03:13:00,
2013-05-23 23:15:00,80.7,72.8,30.02,ENE,68,6.2,6.2,77,0.00,,---,0.10,VWS V13.01,2013-05-24 03:15:00,
2013-05-23 23:16:00,80.7,72.8,30.02,ENE,68,7.6,7.6,77,0.00,,---,0.10,VWS V13.01,2013-05-24 03:16:00,
2013-05-23 23:18:00,80.7,72.8,30.02,ESE,112,2.2,2.2,77,0.00,,---,0.10,VWS V13.01,2013-05-24 03:18:00,
2013-05-23 23:20:00,80.6,72.7,30.02,North,0,2.0,2.0,77,0.00,,---,0.10,VWS V13.01,2013-05-24 03:20:00,
2013-05-23 23:21:00,80.6,72.7,30.02,NE,45,4.2,4.2,77,0.00,,---,0.10,VWS V13.01,2013-05-24 03:21:00,
2013-05-23 23:23:00,80.6,72.3,30.02,ENE,68,7.3,7.3,76,0.00,,---,0.10,VWS V13.01,2013-05-24 03:23:00,
2013-05-23 23:25:00,80.4,72.2,30.02,North,0,0.0,0.0,76,0.00,,---,0.10,VWS V13.01,2013-05-24 03:25:00,
2013-05-23 23:26:00,80.4,72.2,30.02,ESE,112,1.1,1.1,76,0.00,,---,0.10,VWS V13.01,2013-05-24 03:26:00,
2013-05-23 23:28:00,80.4,72.2,30.02,NNE,22,2.0,2.0,76,0.00,,---,0.10,VWS V13.01,2013-05-24 03:28:00,
2013-05-23 23:30:00,80.4,72.2,30.02,SSW,202,0.0,0.0,76,0.00,,---,0.10,VWS V13.01,2013-05-24 03:30:00,
2013-05-23 23:31:00,80.4,72.2,30.02,ESE,112,5.5,5.5,76,0.00,,---,0.10,VWS V13.01,2013-05-24 03:31:00,
2013-05-23 23:33:00,80.4,72.2,30.02,ENE,68,1.5,1.5,76,0.00,,---,0.10,VWS V13.01,2013-05-24 03:33:00,
2013-05-23 23:34:00,80.4,72.2,30.02,ENE,68,1.5,1.5,76,0.00,,---,0.10,VWS V13.01,2013-05-24 03:34:00,
2013-05-23 23:35:00,80.4,72.5,30.02,East,90,2.0,2.0,77,0.00,,---,0.10,VWS V13.01,2013-05-24 03:35:00,
2013-05-23 23:36:00,80.4,72.5,30.02,East,90,2.0,2.0,77,0.00,,---,0.10,VWS V13.01,2013-05-24 03:36:00,
2013-05-23 23:38:00,80.4,72.5,30.01,NE,45,2.9,2.9,77,0.00,,---,0.10,VWS V13.01,2013-05-24 03:38:00,
2013-05-23 23:39:00,80.4,72.5,30.01,NE,45,2.9,2.9,77,0.00,,---,0.10,VWS V13.01,2013-05-24 03:39:00,
2013-05-23 23:41:00,80.4,72.5,30.01,ESE,112,4.4,4.4,77,0.00,,---,0.10,VWS V13.01,2013-05-24 03:41:00,
2013-05-23 23:43:00,80.4,72.5,30.01,ENE,68,4.6,4.6,77,0.00,,---,0.10,VWS V13.01,2013-05-24 03:43:00,
2013-05-23 23:44:00,80.4,72.5,30.01,ENE,68,4.6,4.6,77,0.00,,---,0.10,VWS V13.01,2013-05-24 03:44:00,
2013-05-23 23:46:00,80.4,72.5,30.01,SE,135,11.8,11.8,77,0.00,,---,0.10,VWS V13.01,2013-05-24 03:46:00,
2013-05-23 23:48:00,80.4,72.5,30.01,SE,135,3.3,7.1,77,0.00,,---,0.10,VWS V13.01,2013-05-24 03:48:00,
2013-05-23 23:49:00,80.4,72.5,30.01,ENE,68,7.1,7.1,77,0.00,,---,0.10,VWS V13.01,2013-05-24 03:49:00,
2013-05-23 23:51:00,80.4,72.5,30.01,SE,135,9.1,9.1,77,0.00,,---,0.10,VWS V13.01,2013-05-24 03:51:00,
2013-05-23 23:54:00,80.4,72.9,30.01,NE,45,0.0,0.0,78,0.00,,---,0.10,VWS V13.01,2013-05-24 03:54:00,
2013-05-23 23:56:00,80.4,72.5,30.01,SE,135,0.0,0.0,77,0.00,,---,0.10,VWS V13.01,2013-05-24 03:56:00,
2013-05-23 23:59:00,80.4,72.9,30.01,ESE,112,8.5,8.5,78,0.00,,---,0.00,VWS V13.01,2013-05-24 03:59:00,